Wetterdaten: Samstag, 14.02.2015
Datum Zeit Temp. Aussen +5cm Feuchte Auss Luftdruck Regen Sonnenschein Regendauer Solar Windben
14.02.2015 00:00 2,7 C 1,1 C 87 % 1009,1 hPa 0,0 l/m 0 min 0 min 0 W/m 25,1 km/h (4 Bft)
14.02.2015 00:02 2,7 C 1,1 C 87 % 1009,0 hPa 0,0 l/m 0 min 0 min 0 W/m 31,4 km/h (5 Bft)
14.02.2015 00:06 2,7 C 1,1 C 87 % 1009,0 hPa 0,0 l/m 0 min 0 min 0 W/m 33,5 km/h (5 Bft)
14.02.2015 00:08 2,7 C 1,1 C 87 % 1009,0 hPa 0,0 l/m 0 min 0 min 0 W/m 31,4 km/h (5 Bft)
14.02.2015 00:10 2,7 C 1,1 C 87 % 1009,0 hPa 0,0 l/m 0 min 0 min 0 W/m 31,4 km/h (5 Bft)
14.02.2015 00:12 2,7 C 1,1 C 87 % 1009,0 hPa 0,0 l/m 0 min 0 min 0 W/m 31,4 km/h (5 Bft)
14.02.2015 00:14 2,7 C 1,1 C 87 % 1009,0 hPa 0,0 l/m 0 min 0 min 0 W/m 29,3 km/h (5 Bft)
14.02.2015 00:16 2,7 C 1,1 C 87 % 1009,0 hPa 0,0 l/m 0 min 0 min 0 W/m 20,9 km/h (4 Bft)
14.02.2015 00:18 2,7 C 1,1 C 87 % 1009,0 hPa 0,0 l/m 0 min 0 min 0 W/m 27,2 km/h (4 Bft)
14.02.2015 00:20 2,7 C 1,1 C 87 % 1008,9 hPa 0,0 l/m 0 min 0 min 0 W/m 25,1 km/h (4 Bft)
14.02.2015 00:22 2,6 C 1,1 C 87 % 1009,0 hPa 0,0 l/m 0 min 0 min 0 W/m 18,8 km/h (3 Bft)
14.02.2015 00:24 2,6 C 1,1 C 87 % 1008,9 hPa 0,0 l/m 0 min 0 min 0 W/m 23,0 km/h (4 Bft)
14.02.2015 00:26 2,6 C 1,1 C 87 % 1008,9 hPa 0,0 l/m 0 min 0 min 0 W/m 23,0 km/h (4 Bft)
14.02.2015 00:28 2,6 C 1,1 C 87 % 1008,8 hPa 0,0 l/m 0 min 0 min 0 W/m 29,3 km/h (5 Bft)
14.02.2015 00:30 2,6 C 1,1 C 87 % 1008,7 hPa 0,0 l/m 0 min 0 min 0 W/m 25,1 km/h (4 Bft)
14.02.2015 00:32 2,6 C 1,1 C 87 % 1008,7 hPa 0,0 l/m 0 min 0 min 0 W/m 27,2 km/h (4 Bft)
14.02.2015 00:34 2,6 C 1,1 C 87 % 1008,6 hPa 0,0 l/m 0 min 0 min 0 W/m 18,8 km/h (3 Bft)
14.02.2015 00:36 2,6 C 1,1 C 87 % 1008,6 hPa 0,0 l/m 0 min 0 min 0 W/m 31,4 km/h (5 Bft)
14.02.2015 00:38 2,6 C 1,1 C 87 % 1008,5 hPa 0,0 l/m 0 min 0 min 0 W/m 23,0 km/h (4 Bft)
14.02.2015 00:40 2,6 C 1,1 C 87 % 1008,5 hPa 0,0 l/m 0 min 0 min 0 W/m 25,1 km/h (4 Bft)
14.02.2015 00:42 2,6 C 1,1 C 87 % 1008,5 hPa 0,0 l/m 0 min 0 min 0 W/m 27,2 km/h (4 Bft)
14.02.2015 00:44 2,6 C 1,1 C 87 % 1008,6 hPa 0,0 l/m 0 min 0 min 0 W/m 23,0 km/h (4 Bft)
14.02.2015 00:46 2,6 C 1,1 C 87 % 1008,5 hPa 0,0 l/m 0 min 0 min 0 W/m 18,8 km/h (3 Bft)
14.02.2015 00:48 2,6 C 1,1 C 87 % 1008,5 hPa 0,0 l/m 0 min 0 min 0 W/m 27,2 km/h (4 Bft)
14.02.2015 00:50 2,6 C 1,1 C 87 % 1008,5 hPa 0,0 l/m 0 min 0 min 0 W/m 27,2 km/h (4 Bft)
14.02.2015 00:52 2,6 C 1,1 C 87 % 1008,6 hPa 0,0 l/m 0 min 0 min 0 W/m 25,1 km/h (4 Bft)
14.02.2015 00:54 2,6 C 1,1 C 87 % 1008,6 hPa 0,0 l/m 0 min 0 min 0 W/m 16,7 km/h (3 Bft)
14.02.2015 00:56 2,6 C 1,1 C 87 % 1008,6 hPa 0,0 l/m 0 min 0 min 0 W/m 16,7 km/h (3 Bft)
14.02.2015 00:58 2,6 C 1,1 C 87 % 1008,6 hPa 0,0 l/m 0 min 0 min 0 W/m 23,0 km/h (4 Bft)
14.02.2015 01:00 2,6 C 1,1 C 87 % 1008,5 hPa 0,0 l/m 0 min 0 min 0 W/m 16,7 km/h (3 Bft)
14.02.2015 01:02 2,6 C 1,1 C 87 % 1008,5 hPa 0,0 l/m 0 min 0 min 0 W/m 20,9 km/h (4 Bft)
14.02.2015 01:04 2,6 C 1,1 C 87 % 1008,5 hPa 0,0 l/m 0 min 0 min 0 W/m 16,7 km/h (3 Bft)
14.02.2015 01:06 2,6 C 1,1 C 87 % 1008,5 hPa 0,0 l/m 0 min 0 min 0 W/m 18,8 km/h (3 Bft)
14.02.2015 01:08 2,6 C 1,1 C 87 % 1008,5 hPa 0,0 l/m 0 min 0 min 0 W/m 25,1 km/h (4 Bft)
14.02.2015 01:10 2,6 C 1,1 C 87 % 1008,5 hPa 0,0 l/m 0 min 0 min 0 W/m 20,9 km/h (4 Bft)
14.02.2015 01:12 2,6 C 1,1 C 87 % 1008,4 hPa 0,0 l/m 0 min 0 min 0 W/m 25,1 km/h (4 Bft)
14.02.2015 01:14 2,6 C 1,1 C 87 % 1008,4 hPa 0,0 l/m 0 min 0 min 0 W/m 20,9 km/h (4 Bft)
14.02.2015 01:16 2,6 C 1,1 C 88 % 1008,5 hPa 0,0 l/m 0 min 0 min 0 W/m 20,9 km/h (4 Bft)
14.02.2015 01:18 2,6 C 1,7 C 88 % 1008,4 hPa 0,0 l/m 0 min 0 min 0 W/m 25,1 km/h (4 Bft)
14.02.2015 01:20 2,6 C 1,7 C 88 % 1008,4 hPa 0,0 l/m 0 min 0 min 0 W/m 23,0 km/h (4 Bft)
14.02.2015 01:22 2,7 C 1,7 C 88 % 1008,4 hPa 0,0 l/m 0 min 0 min 0 W/m 20,9 km/h (4 Bft)
14.02.2015 01:24 2,7 C 1,7 C 88 % 1008,4 hPa 0,0 l/m 0 min 0 min 0 W/m 25,1 km/h (4 Bft)
14.02.2015 01:26 2,7 C 1,7 C 88 % 1008,4 hPa 0,0 l/m 0 min 0 min 0 W/m 20,9 km/h (4 Bft)
14.02.2015 01:28 2,7 C 1,7 C 88 % 1008,4 hPa 0,0 l/m 0 min 0 min 0 W/m 23,0 km/h (4 Bft)
14.02.2015 01:30 2,7 C 1,7 C 88 % 1008,4 hPa 0,0 l/m 0 min 0 min 0 W/m 20,9 km/h (4 Bft)
14.02.2015 01:32 2,8 C 1,7 C 88 % 1008,4 hPa 0,0 l/m 0 min 0 min 0 W/m 20,9 km/h (4 Bft)
14.02.2015 01:34 2,8 C 1,7 C 88 % 1008,3 hPa 0,0 l/m 0 min 0 min 0 W/m 23,0 km/h (4 Bft)
14.02.2015 01:36 2,8 C 1,7 C 88 % 1008,3 hPa 0,0 l/m 0 min 0 min 0 W/m 25,1 km/h (4 Bft)
14.02.2015 01:38 2,8 C 1,7 C 88 % 1008,3 hPa 0,0 l/m 0 min 0 min 0 W/m 27,2 km/h (4 Bft)
14.02.2015 01:40 2,8 C 1,7 C 88 % 1008,3 hPa 0,0 l/m 0 min 0 min 0 W/m 23,0 km/h (4 Bft)
14.02.2015 01:42 2,8 C 1,7 C 87 % 1008,3 hPa 0,0 l/m 0 min 0 min 0 W/m 27,2 km/h (4 Bft)
14.02.2015 01:44 2,8 C 1,7 C 87 % 1008,4 hPa 0,0 l/m 0 min 0 min 0 W/m 20,9 km/h (4 Bft)
14.02.2015 01:46 2,8 C 1,7 C 87 % 1008,3 hPa 0,0 l/m 0 min 0 min 0 W/m 18,8 km/h (3 Bft)
14.02.2015 01:48 2,9 C 1,7 C 87 % 1008,3 hPa 0,0 l/m 0 min 0 min 0 W/m 20,9 km/h (4 Bft)
14.02.2015 01:50 2,9 C 1,1 C 87 % 1008,2 hPa 0,0 l/m 0 min 0 min 0 W/m 33,5 km/h (5 Bft)
14.02.2015 01:52 2,9 C 1,1 C 87 % 1008,2 hPa 0,0 l/m 0 min 0 min 0 W/m 20,9 km/h (4 Bft)
14.02.2015 01:54 2,9 C 1,7 C 87 % 1008,2 hPa 0,0 l/m 0 min 0 min 0 W/m 25,1 km/h (4 Bft)
14.02.2015 01:56 2,9 C 1,7 C 87 % 1008,2 hPa 0,0 l/m 0 min 0 min 0 W/m 23,0 km/h (4 Bft)
14.02.2015 01:58 2,9 C 1,7 C 87 % 1008,2 hPa 0,0 l/m 0 min 0 min 0 W/m 20,9 km/h (4 Bft)
14.02.2015 02:00 2,9 C 1,7 C 87 % 1008,2 hPa 0,0 l/m 0 min 0 min 0 W/m 25,1 km/h (4 Bft)
14.02.2015 02:02 2,9 C 1,7 C 87 % 1008,2 hPa 0,0 l/m 0 min 0 min 0 W/m 20,9 km/h (4 Bft)
14.02.2015 02:04 2,9 C 1,1 C 87 % 1008,2 hPa 0,0 l/m 0 min 0 min 0 W/m 23,0 km/h (4 Bft)
14.02.2015 02:06 2,9 C 1,7 C 87 % 1008,3 hPa 0,0 l/m 0 min 0 min 0 W/m 23,0 km/h (4 Bft)
14.02.2015 02:08 2,9 C 1,1 C 87 % 1008,3 hPa 0,0 l/m 0 min 0 min 0 W/m 20,9 km/h (4 Bft)
14.02.2015 02:10 2,9 C 1,1 C 87 % 1008,3 hPa 0,0 l/m 0 min 0 min 0 W/m 25,1 km/h (4 Bft)
14.02.2015 02:12 2,9 C 1,1 C 87 % 1008,3 hPa 0,0 l/m 0 min 0 min 0 W/m 20,9 km/h (4 Bft)
14.02.2015 02:14 2,9 C 1,1 C 87 % 1008,2 hPa 0,0 l/m 0 min 0 min 0 W/m 18,8 km/h (3 Bft)
14.02.2015 02:16 2,9 C 1,1 C 87 % 1008,2 hPa 0,0 l/m 0 min 0 min 0 W/m 23,0 km/h (4 Bft)
14.02.2015 02:18 2,9 C 1,1 C 87 % 1008,2 hPa 0,0 l/m 0 min 0 min 0 W/m 18,8 km/h (3 Bft)
14.02.2015 02:20 2,9 C 1,1 C 87 % 1008,2 hPa 0,0 l/m 0 min 0 min 0 W/m 20,9 km/h (4 Bft)
14.02.2015 02:22 2,8 C 1,1 C 87 % 1008,2 hPa 0,0 l/m 0 min 0 min 0 W/m 27,2 km/h (4 Bft)
14.02.2015 02:24 2,9 C 1,1 C 87 % 1008,3 hPa 0,0 l/m 0 min 0 min 0 W/m 16,7 km/h (3 Bft)
14.02.2015 02:26 2,8 C 1,1 C 87 % 1008,2 hPa 0,0 l/m 0 min 0 min 0 W/m 18,8 km/h (3 Bft)
14.02.2015 02:28 2,9 C 1,1 C 87 % 1008,3 hPa 0,0 l/m 0 min 0 min 0 W/m 23,0 km/h (4 Bft)
14.02.2015 02:30 2,9 C 1,7 C 87 % 1008,2 hPa 0,0 l/m 0 min 0 min 0 W/m 23,0 km/h (4 Bft)
14.02.2015 02:32 2,9 C 1,1 C 87 % 1008,2 hPa 0,0 l/m 0 min 0 min 0 W/m 23,0 km/h (4 Bft)
14.02.2015 02:34 2,9 C 1,1 C 87 % 1008,2 hPa 0,0 l/m 0 min 0 min 0 W/m 18,8 km/h (3 Bft)
14.02.2015 02:36 2,9 C 1,1 C 87 % 1008,3 hPa 0,0 l/m 0 min 0 min 0 W/m 20,9 km/h (4 Bft)
14.02.2015 02:38 2,9 C 1,1 C 87 % 1008,3 hPa 0,0 l/m 0 min 0 min 0 W/m 20,9 km/h (4 Bft)
14.02.2015 02:40 2,9 C 1,1 C 87 % 1008,2 hPa 0,0 l/m 0 min 0 min 0 W/m 20,9 km/h (4 Bft)
14.02.2015 02:42 2,9 C 1,7 C 87 % 1008,1 hPa 0,0 l/m 0 min 0 min 0 W/m 20,9 km/h (4 Bft)
14.02.2015 02:44 2,9 C 1,7 C 87 % 1008,1 hPa 0,0 l/m 0 min 0 min 0 W/m 18,8 km/h (3 Bft)
14.02.2015 02:46 2,9 C 1,1 C 87 % 1008,1 hPa 0,0 l/m 0 min 0 min 0 W/m 23,0 km/h (4 Bft)
14.02.2015 02:48 2,9 C 1,7 C 87 % 1008,1 hPa 0,0 l/m 0 min 0 min 0 W/m 29,3 km/h (5 Bft)
14.02.2015 02:50 2,9 C 1,7 C 87 % 1008,1 hPa 0,0 l/m 0 min 0 min 0 W/m 29,3 km/h (5 Bft)
14.02.2015 02:52 2,9 C 1,7 C 87 % 1008,1 hPa 0,0 l/m 0 min 0 min 0 W/m 27,2 km/h (4 Bft)
14.02.2015 02:54 2,9 C 1,7 C 87 % 1008,1 hPa 0,0 l/m 0 min 0 min 0 W/m 25,1 km/h (4 Bft)
14.02.2015 02:56 2,9 C 1,7 C 87 % 1008,0 hPa 0,0 l/m 0 min 0 min 0 W/m 16,7 km/h (3 Bft)
14.02.2015 02:58 2,9 C 1,7 C 87 % 1008,0 hPa 0,0 l/m 0 min 0 min 0 W/m 20,9 km/h (4 Bft)
14.02.2015 03:00 2,9 C 1,7 C 88 % 1008,1 hPa 0,0 l/m 0 min 0 min 0 W/m 23,0 km/h (4 Bft)
14.02.2015 03:02 2,9 C 1,7 C 88 % 1008,1 hPa 0,0 l/m 0 min 0 min 0 W/m 18,8 km/h (3 Bft)
14.02.2015 03:04 2,9 C 1,7 C 88 % 1008,0 hPa 0,0 l/m 0 min 0 min 0 W/m 27,2 km/h (4 Bft)
14.02.2015 03:06 2,9 C 1,7 C 88 % 1008,0 hPa 0,0 l/m 0 min 0 min 0 W/m 20,9 km/h (4 Bft)
14.02.2015 03:08 2,9 C 1,7 C 88 % 1007,9 hPa 0,0 l/m 0 min 0 min 0 W/m 18,8 km/h (3 Bft)
14.02.2015 03:10 2,9 C 1,7 C 88 % 1007,9 hPa 0,0 l/m 0 min 0 min 0 W/m 20,9 km/h (4 Bft)
14.02.2015 03:12 2,9 C 1,7 C 88 % 1008,0 hPa 0,0 l/m 0 min 0 min 0 W/m 20,9 km/h (4 Bft)
14.02.2015 03:14 2,9 C 1,7 C 88 % 1008,0 hPa 0,0 l/m 0 min 0 min 0 W/m 23,0 km/h (4 Bft)
14.02.2015 03:16 2,9 C 1,7 C 88 % 1007,9 hPa 0,0 l/m 0 min 0 min 0 W/m 20,9 km/h (4 Bft)
14.02.2015 03:18 2,9 C 1,7 C 88 % 1007,9 hPa 0,0 l/m 0 min 0 min 0 W/m 23,0 km/h (4 Bft)
14.02.2015 03:20 3,0 C 1,7 C 88 % 1007,9 hPa 0,0 l/m 0 min 0 min 0 W/m 18,8 km/h (3 Bft)
14.02.2015 03:22 3,0 C 1,7 C 88 % 1008,0 hPa 0,0 l/m 0 min 0 min 0 W/m 18,8 km/h (3 Bft)
14.02.2015 03:24 3,0 C 1,7 C 88 % 1007,9 hPa 0,0 l/m 0 min 0 min 0 W/m 20,9 km/h (4 Bft)
14.02.2015 03:26 3,0 C 1,7 C 88 % 1007,9 hPa 0,0 l/m 0 min 0 min 0 W/m 25,1 km/h (4 Bft)
14.02.2015 03:28 3,1 C 1,7 C 88 % 1007,8 hPa 0,0 l/m 0 min 0 min 0 W/m 23,0 km/h (4 Bft)
14.02.2015 03:30 3,1 C 1,7 C 88 % 1007,8 hPa 0,0 l/m 0 min 0 min 0 W/m 18,8 km/h (3 Bft)
14.02.2015 03:32 3,1 C 1,7 C 88 % 1007,8 hPa 0,0 l/m 0 min 0 min 0 W/m 23,0 km/h (4 Bft)
14.02.2015 03:34 3,1 C 1,7 C 88 % 1007,8 hPa 0,0 l/m 0 min 0 min 0 W/m 18,8 km/h (3 Bft)
14.02.2015 03:36 3,1 C 1,7 C 88 % 1007,8 hPa 0,0 l/m 0 min 0 min 0 W/m 23,0 km/h (4 Bft)
14.02.2015 03:38 3,1 C 1,7 C 88 % 1007,8 hPa 0,0 l/m 0 min 0 min 0 W/m 23,0 km/h (4 Bft)
14.02.2015 03:40 3,1 C 1,7 C 88 % 1007,7 hPa 0,0 l/m 0 min 0 min 0 W/m 20,9 km/h (4 Bft)
14.02.2015 03:42 3,1 C 1,7 C 88 % 1007,7 hPa 0,0 l/m 0 min 0 min 0 W/m 23,0 km/h (4 Bft)
14.02.2015 03:44 3,1 C 1,7 C 88 % 1007,5 hPa 0,0 l/m 0 min 0 min 0 W/m 23,0 km/h (4 Bft)
14.02.2015 03:46 3,1 C 1,7 C 88 % 1007,5 hPa 0,0 l/m 0 min 0 min 0 W/m 23,0 km/h (4 Bft)
14.02.2015 03:48 3,2 C 1,7 C 88 % 1007,5 hPa 0,0 l/m 0 min 0 min 0 W/m 18,8 km/h (3 Bft)
14.02.2015 03:50 3,2 C 1,7 C 88 % 1007,5 hPa 0,0 l/m 0 min 0 min 0 W/m 23,0 km/h (4 Bft)
14.02.2015 03:52 3,2 C 2,2 C 88 % 1007,5 hPa 0,0 l/m 0 min 0 min 0 W/m 25,1 km/h (4 Bft)
14.02.2015 03:54 3,2 C 2,2 C 88 % 1007,5 hPa 0,0 l/m 0 min 0 min 0 W/m 23,0 km/h (4 Bft)
14.02.2015 03:56 3,2 C 2,2 C 88 % 1007,4 hPa 0,0 l/m 0 min 0 min 0 W/m 20,9 km/h (4 Bft)
14.02.2015 03:58 3,2 C 2,2 C 88 % 1007,4 hPa 0,0 l/m 0 min 0 min 0 W/m 23,0 km/h (4 Bft)
14.02.2015 04:00 3,2 C 2,2 C 88 % 1007,4 hPa 0,0 l/m 0 min 0 min 0 W/m 18,8 km/h (3 Bft)
14.02.2015 04:05 3,2 C 2,2 C 88 % 1007,4 hPa 0,0 l/m 0 min 0 min 0 W/m 20,9 km/h (4 Bft)
14.02.2015 04:06 3,2 C 2,2 C 88 % 1007,5 hPa 0,0 l/m 0 min 0 min 0 W/m 18,8 km/h (3 Bft)
14.02.2015 04:08 3,2 C 2,2 C 88 % 1007,5 hPa 0,0 l/m 0 min 0 min 0 W/m 18,8 km/h (3 Bft)
14.02.2015 04:10 3,2 C 2,2 C 88 % 1007,4 hPa 0,0 l/m 0 min 0 min 0 W/m 18,8 km/h (3 Bft)
14.02.2015 04:12 3,2 C 2,2 C 88 % 1007,5 hPa 0,0 l/m 0 min 0 min 0 W/m 23,0 km/h (4 Bft)
14.02.2015 04:14 3,2 C 2,2 C 88 % 1007,6 hPa 0,0 l/m 0 min 0 min 0 W/m 18,8 km/h (3 Bft)
14.02.2015 04:16 3,2 C 2,2 C 87 % 1007,4 hPa 0,0 l/m 0 min 0 min 0 W/m 25,1 km/h (4 Bft)
14.02.2015 04:18 3,3 C 2,2 C 87 % 1007,4 hPa 0,0 l/m 0 min 0 min 0 W/m 23,0 km/h (4 Bft)
14.02.2015 04:20 3,3 C 2,2 C 87 % 1007,4 hPa 0,0 l/m 0 min 0 min 0 W/m 20,9 km/h (4 Bft)
14.02.2015 04:22 3,3 C 2,2 C 87 % 1007,3 hPa 0,0 l/m 0 min 0 min 0 W/m 20,9 km/h (4 Bft)
14.02.2015 04:24 3,3 C 2,2 C 87 % 1007,4 hPa 0,0 l/m 0 min 0 min 0 W/m 20,9 km/h (4 Bft)
14.02.2015 04:26 3,3 C 2,2 C 87 % 1007,4 hPa 0,0 l/m 0 min 0 min 0 W/m 27,2 km/h (4 Bft)
14.02.2015 04:28 3,3 C 2,2 C 87 % 1007,4 hPa 0,0 l/m 0 min 0 min 0 W/m 20,9 km/h (4 Bft)
14.02.2015 04:30 3,3 C 2,2 C 87 % 1007,4 hPa 0,0 l/m 0 min 0 min 0 W/m 16,7 km/h (3 Bft)
14.02.2015 04:32 3,3 C 2,2 C 87 % 1007,4 hPa 0,0 l/m 0 min 0 min 0 W/m 27,2 km/h (4 Bft)
14.02.2015 04:34 3,3 C 2,2 C 87 % 1007,4 hPa 0,0 l/m 0 min 0 min 0 W/m 23,0 km/h (4 Bft)
14.02.2015 04:36 3,3 C 2,2 C 87 % 1007,5 hPa 0,0 l/m 0 min 0 min 0 W/m 29,3 km/h (5 Bft)
14.02.2015 04:38 3,3 C 2,2 C 87 % 1007,3 hPa 0,0 l/m 0 min 0 min 0 W/m 25,1 km/h (4 Bft)
14.02.2015 04:40 3,3 C 2,2 C 87 % 1007,4 hPa 0,0 l/m 0 min 0 min 0 W/m 35,6 km/h (5 Bft)
14.02.2015 04:42 3,3 C 2,2 C 87 % 1007,3 hPa 0,0 l/m 0 min 0 min 0 W/m 27,2 km/h (4 Bft)
14.02.2015 04:44 3,3 C 2,2 C 87 % 1007,4 hPa 0,0 l/m 0 min 0 min 0 W/m 25,1 km/h (4 Bft)
14.02.2015 04:46 3,3 C 2,2 C 87 % 1007,4 hPa 0,0 l/m 0 min 0 min 0 W/m 23,0 km/h (4 Bft)
14.02.2015 04:48 3,3 C 2,2 C 87 % 1007,4 hPa 0,0 l/m 0 min 0 min 0 W/m 18,8 km/h (3 Bft)
14.02.2015 04:50 3,3 C 2,2 C 87 % 1007,3 hPa 0,0 l/m 0 min 0 min 0 W/m 31,4 km/h (5 Bft)
14.02.2015 04:52 3,4 C 2,2 C 87 % 1007,4 hPa 0,0 l/m 0 min 0 min 0 W/m 25,1 km/h (4 Bft)
14.02.2015 04:54 3,4 C 2,2 C 87 % 1007,3 hPa 0,0 l/m 0 min 0 min 0 W/m 27,2 km/h (4 Bft)
14.02.2015 04:56 3,3 C 2,2 C 87 % 1007,4 hPa 0,0 l/m 0 min 0 min 0 W/m 18,8 km/h (3 Bft)
14.02.2015 04:58 3,3 C 2,2 C 87 % 1007,3 hPa 0,0 l/m 0 min 0 min 0 W/m 20,9 km/h (4 Bft)
14.02.2015 05:00 3,4 C 2,2 C 87 % 1007,3 hPa 0,0 l/m 0 min 0 min 0 W/m 27,2 km/h (4 Bft)
14.02.2015 05:02 3,4 C 2,2 C 87 % 1007,3 hPa 0,0 l/m 0 min 0 min 0 W/m 20,9 km/h (4 Bft)
14.02.2015 05:04 3,4 C 2,2 C 87 % 1007,3 hPa 0,0 l/m 0 min 0 min 0 W/m 18,8 km/h (3 Bft)
14.02.2015 05:06 3,4 C 2,2 C 87 % 1007,3 hPa 0,0 l/m 0 min 0 min 0 W/m 25,1 km/h (4 Bft)
14.02.2015 05:08 3,4 C 2,2 C 87 % 1007,4 hPa 0,0 l/m 0 min 0 min 0 W/m 18,8 km/h (3 Bft)
14.02.2015 05:10 3,4 C 2,2 C 87 % 1007,3 hPa 0,0 l/m 0 min 0 min 0 W/m 27,2 km/h (4 Bft)
14.02.2015 05:12 3,4 C 2,2 C 87 % 1007,3 hPa 0,0 l/m 0 min 0 min 0 W/m 20,9 km/h (4 Bft)
14.02.2015 05:14 3,4 C 2,2 C 87 % 1007,3 hPa 0,0 l/m 0 min 0 min 0 W/m 20,9 km/h (4 Bft)
14.02.2015 05:16 3,3 C 2,2 C 87 % 1007,3 hPa 0,0 l/m 0 min 0 min 0 W/m 20,9 km/h (4 Bft)
14.02.2015 05:18 3,4 C 2,2 C 87 % 1007,4 hPa 0,0 l/m 0 min 0 min 0 W/m 27,2 km/h (4 Bft)
14.02.2015 05:20 3,4 C 2,2 C 87 % 1007,5 hPa 0,0 l/m 0 min 0 min 0 W/m 23,0 km/h (4 Bft)
14.02.2015 05:22 3,4 C 2,2 C 87 % 1007,5 hPa 0,0 l/m 0 min 0 min 0 W/m 29,3 km/h (5 Bft)
14.02.2015 05:24 3,4 C 2,2 C 87 % 1007,5 hPa 0,0 l/m 0 min 0 min 0 W/m 25,1 km/h (4 Bft)
14.02.2015 05:26 3,3 C 2,2 C 87 % 1007,6 hPa 0,0 l/m 0 min 0 min 0 W/m 23,0 km/h (4 Bft)
14.02.2015 05:28 3,3 C 2,2 C 87 % 1007,5 hPa 0,0 l/m 0 min 0 min 0 W/m 25,1 km/h (4 Bft)
14.02.2015 05:30 3,3 C 2,2 C 87 % 1007,6 hPa 0,0 l/m 0 min 0 min 0 W/m 20,9 km/h (4 Bft)
14.02.2015 05:32 3,4 C 2,2 C 87 % 1007,5 hPa 0,0 l/m 0 min 0 min 0 W/m 29,3 km/h (5 Bft)
14.02.2015 05:34 3,3 C 2,2 C 87 % 1007,4 hPa 0,0 l/m 0 min 0 min 0 W/m 27,2 km/h (4 Bft)
14.02.2015 05:36 3,3 C 2,2 C 87 % 1007,4 hPa 0,0 l/m 0 min 0 min 0 W/m 25,1 km/h (4 Bft)
14.02.2015 05:38 3,4 C 2,2 C 87 % 1007,3 hPa 0,0 l/m 0 min 0 min 0 W/m 16,7 km/h (3 Bft)
14.02.2015 05:40 3,4 C 2,2 C 87 % 1007,3 hPa 0,0 l/m 0 min 0 min 0 W/m 23,0 km/h (4 Bft)
14.02.2015 05:42 3,3 C 2,2 C 87 % 1007,3 hPa 0,0 l/m 0 min 0 min 0 W/m 18,8 km/h (3 Bft)
14.02.2015 05:44 3,4 C 2,2 C 87 % 1007,3 hPa 0,0 l/m 0 min 0 min 0 W/m 18,8 km/h (3 Bft)
14.02.2015 05:46 3,3 C 2,2 C 87 % 1007,2 hPa 0,0 l/m 0 min 0 min 0 W/m 27,2 km/h (4 Bft)
14.02.2015 05:48 3,4 C 2,2 C 87 % 1007,3 hPa 0,0 l/m 0 min 0 min 0 W/m 23,0 km/h (4 Bft)
14.02.2015 05:50 3,4 C 2,2 C 87 % 1007,3 hPa 0,0 l/m 0 min 0 min 0 W/m 23,0 km/h (4 Bft)
14.02.2015 05:52 3,3 C 2,2 C 87 % 1007,2 hPa 0,0 l/m 0 min 0 min 0 W/m 23,0 km/h (4 Bft)
14.02.2015 05:54 3,4 C 2,2 C 87 % 1007,2 hPa 0,0 l/m 0 min 0 min 0 W/m 23,0 km/h (4 Bft)
14.02.2015 05:56 3,4 C 2,2 C 87 % 1007,3 hPa 0,0 l/m 0 min 0 min 0 W/m 23,0 km/h (4 Bft)
14.02.2015 05:58 3,4 C 2,2 C 87 % 1007,3 hPa 0,0 l/m 0 min 0 min 0 W/m 27,2 km/h (4 Bft)
14.02.2015 06:00 3,4 C 2,2 C 87 % 1007,3 hPa 0,0 l/m 0 min 0 min 0 W/m 23,0 km/h (4 Bft)
14.02.2015 06:02 3,4 C 2,2 C 87 % 1007,3 hPa 0,0 l/m 0 min 0 min 0 W/m 25,1 km/h (4 Bft)
14.02.2015 06:04 3,4 C 2,2 C 87 % 1007,3 hPa 0,0 l/m 0 min 0 min 0 W/m 27,2 km/h (4 Bft)
14.02.2015 06:06 3,4 C 2,2 C 87 % 1007,3 hPa 0,0 l/m 0 min 0 min 0 W/m 23,0 km/h (4 Bft)
14.02.2015 06:08 3,4 C 2,2 C 87 % 1007,5 hPa 0,0 l/m 0 min 0 min 0 W/m 23,0 km/h (4 Bft)
14.02.2015 06:10 3,4 C 2,2 C 87 % 1007,3 hPa 0,0 l/m 0 min 0 min 0 W/m 23,0 km/h (4 Bft)
14.02.2015 06:12 3,4 C 2,2 C 87 % 1007,3 hPa 0,0 l/m 0 min 0 min 0 W/m 16,7 km/h (3 Bft)
14.02.2015 06:14 3,4 C 2,2 C 87 % 1007,4 hPa 0,0 l/m 0 min 0 min 0 W/m 29,3 km/h (5 Bft)
14.02.2015 06:16 3,4 C 2,2 C 87 % 1007,3 hPa 0,0 l/m 0 min 0 min 0 W/m 25,1 km/h (4 Bft)
14.02.2015 06:18 3,3 C 2,2 C 87 % 1007,3 hPa 0,0 l/m 0 min 0 min 0 W/m 27,2 km/h (4 Bft)
14.02.2015 06:20 3,3 C 2,2 C 87 % 1007,3 hPa 0,0 l/m 0 min 0 min 0 W/m 16,7 km/h (3 Bft)
14.02.2015 06:22 3,3 C 2,2 C 87 % 1007,3 hPa 0,0 l/m 0 min 0 min 0 W/m 20,9 km/h (4 Bft)
14.02.2015 06:24 3,3 C 2,2 C 87 % 1007,3 hPa 0,0 l/m 0 min 0 min 0 W/m 20,9 km/h (4 Bft)
14.02.2015 06:26 3,3 C 2,2 C 87 % 1007,3 hPa 0,0 l/m 0 min 0 min 0 W/m 23,0 km/h (4 Bft)
14.02.2015 06:28 3,3 C 2,2 C 87 % 1007,3 hPa 0,0 l/m 0 min 0 min 0 W/m 18,8 km/h (3 Bft)
14.02.2015 06:30 3,3 C 2,2 C 87 % 1007,3 hPa 0,0 l/m 0 min 0 min 0 W/m 27,2 km/h (4 Bft)
14.02.2015 06:32 3,3 C 2,2 C 87 % 1007,3 hPa 0,0 l/m 0 min 0 min 0 W/m 20,9 km/h (4 Bft)
14.02.2015 06:34 3,3 C 2,2 C 87 % 1007,3 hPa 0,0 l/m 0 min 0 min 0 W/m 20,9 km/h (4 Bft)
14.02.2015 06:36 3,3 C 2,2 C 87 % 1007,3 hPa 0,0 l/m 0 min 0 min 0 W/m 27,2 km/h (4 Bft)
14.02.2015 06:38 3,3 C 2,2 C 87 % 1007,4 hPa 0,0 l/m 0 min 0 min 0 W/m 23,0 km/h (4 Bft)
14.02.2015 06:40 3,3 C 2,2 C 87 % 1007,3 hPa 0,0 l/m 0 min 0 min 0 W/m 18,8 km/h (3 Bft)
14.02.2015 06:42 3,3 C 2,2 C 87 % 1007,3 hPa 0,0 l/m 0 min 0 min 0 W/m 25,1 km/h (4 Bft)
14.02.2015 06:44 3,3 C 2,2 C 87 % 1007,3 hPa 0,0 l/m 0 min 0 min 0 W/m 18,8 km/h (3 Bft)
14.02.2015 06:46 3,3 C 2,2 C 87 % 1007,3 hPa 0,0 l/m 0 min 0 min 0 W/m 23,0 km/h (4 Bft)
14.02.2015 06:48 3,3 C 2,2 C 87 % 1007,4 hPa 0,0 l/m 0 min 0 min 0 W/m 20,9 km/h (4 Bft)
14.02.2015 06:50 3,3 C 2,2 C 87 % 1007,4 hPa 0,0 l/m 0 min 0 min 0 W/m 23,0 km/h (4 Bft)
14.02.2015 06:52 3,3 C 2,2 C 87 % 1007,4 hPa 0,0 l/m 0 min 0 min 0 W/m 25,1 km/h (4 Bft)
14.02.2015 06:54 3,4 C 2,2 C 87 % 1007,6 hPa 0,0 l/m 0 min 0 min 0 W/m 16,7 km/h (3 Bft)
14.02.2015 06:56 3,3 C 2,2 C 87 % 1007,6 hPa 0,0 l/m 0 min 0 min 0 W/m 20,9 km/h (4 Bft)
14.02.2015 06:58 3,3 C 2,2 C 87 % 1007,6 hPa 0,0 l/m 0 min 0 min 0 W/m 16,7 km/h (3 Bft)
14.02.2015 07:00 3,3 C 1,7 C 87 % 1007,6 hPa 0,0 l/m 0 min 0 min 0 W/m 16,7 km/h (3 Bft)
14.02.2015 07:02 3,3 C 1,7 C 87 % 1007,6 hPa 0,0 l/m 0 min 0 min 0 W/m 20,9 km/h (4 Bft)
14.02.2015 07:04 3,4 C 2,2 C 87 % 1007,6 hPa 0,0 l/m 0 min 0 min 0 W/m 16,7 km/h (3 Bft)
14.02.2015 07:06 3,4 C 2,2 C 87 % 1007,6 hPa 0,0 l/m 0 min 0 min 0 W/m 20,9 km/h (4 Bft)
14.02.2015 07:08 3,4 C 2,2 C 87 % 1007,6 hPa 0,0 l/m 0 min 0 min 0 W/m 25,1 km/h (4 Bft)
14.02.2015 07:10 3,4 C 2,2 C 87 % 1007,7 hPa 0,0 l/m 0 min 0 min 0 W/m 18,8 km/h (3 Bft)
14.02.2015 07:12 3,4 C 2,2 C 87 % 1007,7 hPa 0,0 l/m 0 min 0 min 0 W/m 18,8 km/h (3 Bft)
14.02.2015 07:14 3,4 C 2,2 C 87 % 1007,6 hPa 0,0 l/m 0 min 0 min 0 W/m 20,9 km/h (4 Bft)
14.02.2015 07:16 3,4 C 2,2 C 87 % 1007,7 hPa 0,0 l/m 0 min 0 min 0 W/m 18,8 km/h (3 Bft)
14.02.2015 07:18 3,4 C 2,2 C 87 % 1007,7 hPa 0,0 l/m 0 min 0 min 0 W/m 16,7 km/h (3 Bft)
14.02.2015 07:20 3,4 C 2,2 C 87 % 1007,7 hPa 0,0 l/m 0 min 0 min 0 W/m 18,8 km/h (3 Bft)
14.02.2015 07:22 3,4 C 2,2 C 87 % 1007,7 hPa 0,0 l/m 0 min 0 min 0 W/m 20,9 km/h (4 Bft)
14.02.2015 07:24 3,4 C 2,2 C 87 % 1007,6 hPa 0,0 l/m 0 min 0 min 0 W/m 18,8 km/h (3 Bft)
14.02.2015 07:26 3,4 C 2,2 C 87 % 1007,6 hPa 0,0 l/m 0 min 0 min 0 W/m 18,8 km/h (3 Bft)
14.02.2015 07:28 3,4 C 2,2 C 87 % 1007,7 hPa 0,0 l/m 0 min 0 min 0 W/m 18,8 km/h (3 Bft)
14.02.2015 07:30 3,4 C 1,7 C 87 % 1007,7 hPa 0,0 l/m 0 min 0 min 0 W/m 20,9 km/h (4 Bft)
14.02.2015 07:32 3,4 C 1,7 C 87 % 1007,7 hPa 0,0 l/m 0 min 0 min 0 W/m 20,9 km/h (4 Bft)
14.02.2015 07:34 3,4 C 1,7 C 87 % 1007,6 hPa 0,0 l/m 0 min 0 min 0 W/m 18,8 km/h (3 Bft)
14.02.2015 07:36 3,4 C 1,7 C 87 % 1007,5 hPa 0,0 l/m 0 min 0 min 0 W/m 20,9 km/h (4 Bft)
14.02.2015 07:38 3,4 C 1,7 C 87 % 1007,5 hPa 0,0 l/m 0 min 0 min 0 W/m 20,9 km/h (4 Bft)
14.02.2015 07:40 3,4 C 1,7 C 87 % 1007,6 hPa 0,0 l/m 0 min 0 min 0 W/m 23,0 km/h (4 Bft)
14.02.2015 07:42 3,4 C 1,7 C 87 % 1007,4 hPa 0,0 l/m 0 min 0 min 0 W/m 18,8 km/h (3 Bft)
14.02.2015 07:44 3,4 C 1,7 C 87 % 1007,5 hPa 0,0 l/m 0 min 0 min 0 W/m 23,0 km/h (4 Bft)
14.02.2015 07:46 3,4 C 1,7 C 87 % 1007,5 hPa 0,0 l/m 0 min 0 min 0 W/m 23,0 km/h (4 Bft)
14.02.2015 07:48 3,4 C 1,7 C 87 % 1007,6 hPa 0,0 l/m 0 min 0 min 4 W/m 23,0 km/h (4 Bft)
14.02.2015 07:50 3,4 C 1,7 C 87 % 1007,6 hPa 0,0 l/m 0 min 0 min 5 W/m 23,0 km/h (4 Bft)
14.02.2015 07:52 3,4 C 1,7 C 87 % 1007,5 hPa 0,0 l/m 0 min 0 min 5 W/m 27,2 km/h (4 Bft)
14.02.2015 07:54 3,4 C 1,7 C 87 % 1007,5 hPa 0,0 l/m 0 min 0 min 6 W/m 20,9 km/h (4 Bft)
14.02.2015 07:56 3,3 C 1,7 C 87 % 1007,5 hPa 0,0 l/m 0 min 0 min 7 W/m 14,6 km/h (3 Bft)
14.02.2015 07:58 3,3 C 1,7 C 87 % 1007,6 hPa 0,0 l/m 0 min 0 min 7 W/m 18,8 km/h (3 Bft)
14.02.2015 08:00 3,4 C 1,7 C 87 % 1007,7 hPa 0,0 l/m 0 min 0 min 9 W/m 16,7 km/h (3 Bft)
14.02.2015 08:02 3,3 C 1,7 C 87 % 1007,7 hPa 0,0 l/m 0 min 0 min 10 W/m 25,1 km/h (4 Bft)
14.02.2015 08:04 3,3 C 1,7 C 88 % 1007,8 hPa 0,0 l/m 2 min 0 min 12 W/m 18,8 km/h (3 Bft)
14.02.2015 08:06 3,3 C 1,7 C 88 % 1007,7 hPa 0,0 l/m 0 min 0 min 13 W/m 23,0 km/h (4 Bft)
14.02.2015 08:08 3,3 C 1,7 C 87 % 1007,7 hPa 0,0 l/m 0 min 0 min 14 W/m 23,0 km/h (4 Bft)
14.02.2015 08:10 3,3 C 1,7 C 87 % 1007,6 hPa 0,0 l/m 0 min 0 min 16 W/m 27,2 km/h (4 Bft)
14.02.2015 08:12 3,4 C 1,7 C 87 % 1007,7 hPa 0,0 l/m 0 min 0 min 18 W/m 20,9 km/h (4 Bft)
14.02.2015 08:14 3,3 C 1,7 C 87 % 1007,7 hPa 0,0 l/m 0 min 0 min 18 W/m 23,0 km/h (4 Bft)
14.02.2015 08:16 3,3 C 1,7 C 87 % 1007,7 hPa 0,0 l/m 0 min 0 min 19 W/m 27,2 km/h (4 Bft)
14.02.2015 08:18 3,3 C 1,7 C 87 % 1007,8 hPa 0,0 l/m 0 min 0 min 21 W/m 29,3 km/h (5 Bft)
14.02.2015 08:20 3,4 C 1,7 C 88 % 1007,8 hPa 0,0 l/m 0 min 0 min 21 W/m 25,1 km/h (4 Bft)
14.02.2015 08:22 3,4 C 2,2 C 88 % 1007,8 hPa 0,0 l/m 0 min 0 min 22 W/m 18,8 km/h (3 Bft)
14.02.2015 08:24 3,4 C 2,2 C 88 % 1007,9 hPa 0,0 l/m 0 min 0 min 24 W/m 25,1 km/h (4 Bft)
14.02.2015 08:26 3,4 C 2,2 C 88 % 1007,8 hPa 0,0 l/m 0 min 0 min 26 W/m 20,9 km/h (4 Bft)
14.02.2015 08:28 3,4 C 2,2 C 88 % 1007,8 hPa 0,0 l/m 0 min 0 min 27 W/m 23,0 km/h (4 Bft)
14.02.2015 08:30 3,4 C 2,2 C 88 % 1007,9 hPa 0,0 l/m 0 min 0 min 29 W/m 16,7 km/h (3 Bft)
14.02.2015 08:32 3,4 C 2,2 C 88 % 1007,8 hPa 0,0 l/m 0 min 0 min 30 W/m 18,8 km/h (3 Bft)
14.02.2015 08:34 3,4 C 2,2 C 88 % 1007,8 hPa 0,0 l/m 0 min 0 min 31 W/m 29,3 km/h (5 Bft)
14.02.2015 08:36 3,4 C 2,2 C 88 % 1007,9 hPa 0,0 l/m 0 min 0 min 32 W/m 20,9 km/h (4 Bft)
14.02.2015 08:38 3,4 C 2,2 C 88 % 1007,9 hPa 0,0 l/m 0 min 0 min 33 W/m 16,7 km/h (3 Bft)
14.02.2015 08:40 3,4 C 2,2 C 88 % 1007,8 hPa 0,0 l/m 0 min 0 min 34 W/m 27,2 km/h (4 Bft)
14.02.2015 08:42 3,4 C 2,2 C 88 % 1007,8 hPa 0,0 l/m 0 min 0 min 37 W/m 27,2 km/h (4 Bft)
14.02.2015 08:44 3,5 C 2,2 C 88 % 1007,8 hPa 0,0 l/m 0 min 0 min 39 W/m 18,8 km/h (3 Bft)
14.02.2015 08:46 3,5 C 2,2 C 88 % 1007,8 hPa 0,0 l/m 0 min 0 min 41 W/m 18,8 km/h (3 Bft)
14.02.2015 08:48 3,5 C 2,2 C 88 % 1007,8 hPa 0,0 l/m 0 min 0 min 45 W/m 23,0 km/h (4 Bft)
14.02.2015 08:50 3,5 C 2,2 C 88 % 1007,8 hPa 0,0 l/m 0 min 0 min 47 W/m 20,9 km/h (4 Bft)
14.02.2015 08:52 3,6 C 2,2 C 88 % 1007,7 hPa 0,0 l/m 0 min 0 min 51 W/m 23,0 km/h (4 Bft)
14.02.2015 08:54 3,6 C 2,2 C 88 % 1007,6 hPa 0,0 l/m 0 min 0 min 55 W/m 20,9 km/h (4 Bft)
14.02.2015 08:56 3,6 C 2,2 C 88 % 1007,6 hPa 0,0 l/m 0 min 0 min 58 W/m 25,1 km/h (4 Bft)
14.02.2015 08:58 3,6 C 2,2 C 88 % 1007,7 hPa 0,0 l/m 0 min 0 min 62 W/m 20,9 km/h (4 Bft)
14.02.2015 09:00 3,6 C 2,2 C 88 % 1007,7 hPa 0,0 l/m 0 min 0 min 68 W/m 29,3 km/h (5 Bft)
14.02.2015 09:02 3,7 C 2,2 C 87 % 1007,8 hPa 0,0 l/m 0 min 0 min 71 W/m 20,9 km/h (4 Bft)
14.02.2015 09:04 3,7 C 2,2 C 87 % 1007,8 hPa 0,0 l/m 0 min 0 min 64 W/m 25,1 km/h (4 Bft)
14.02.2015 09:06 3,7 C 2,2 C 87 % 1007,9 hPa 0,0 l/m 0 min 0 min 65 W/m 29,3 km/h (5 Bft)
14.02.2015 09:08 3,7 C 2,8 C 87 % 1007,8 hPa 0,0 l/m 0 min 0 min 70 W/m 16,7 km/h (3 Bft)
14.02.2015 09:10 3,7 C 2,8 C 87 % 1007,9 hPa 0,0 l/m 0 min 0 min 72 W/m 16,7 km/h (3 Bft)
14.02.2015 09:12 3,7 C 2,8 C 87 % 1007,9 hPa 0,0 l/m 0 min 0 min 76 W/m 20,9 km/h (4 Bft)
14.02.2015 09:14 3,8 C 2,8 C 87 % 1008,0 hPa 0,0 l/m 0 min 0 min 77 W/m 18,8 km/h (3 Bft)
14.02.2015 09:16 3,8 C 2,8 C 88 % 1008,1 hPa 0,0 l/m 0 min 0 min 78 W/m 16,7 km/h (3 Bft)
14.02.2015 09:18 3,8 C 2,8 C 88 % 1008,1 hPa 0,0 l/m 0 min 0 min 78 W/m 20,9 km/h (4 Bft)
14.02.2015 09:20 3,8 C 2,8 C 87 % 1008,2 hPa 0,0 l/m 0 min 0 min 78 W/m 20,9 km/h (4 Bft)
14.02.2015 09:22 3,9 C 2,8 C 87 % 1008,1 hPa 0,0 l/m 0 min 0 min 77 W/m 20,9 km/h (4 Bft)
14.02.2015 09:24 3,9 C 2,8 C 87 % 1008,2 hPa 0,0 l/m 0 min 0 min 79 W/m 12,6 km/h (3 Bft)
14.02.2015 09:26 3,9 C 2,8 C 87 % 1008,2 hPa 0,0 l/m 0 min 0 min 88 W/m 16,7 km/h (3 Bft)
14.02.2015 09:28 3,9 C 3,3 C 87 % 1008,2 hPa 0,0 l/m 0 min 0 min 98 W/m 16,7 km/h (3 Bft)
14.02.2015 09:30 4,0 C 3,3 C 87 % 1008,2 hPa 0,0 l/m 2 min 0 min 117 W/m 20,9 km/h (4 Bft)
14.02.2015 09:32 4,1 C 3,3 C 87 % 1008,2 hPa 0,0 l/m 2 min 0 min 138 W/m 23,0 km/h (4 Bft)
14.02.2015 09:34 4,1 C 3,3 C 87 % 1008,1 hPa 0,0 l/m 2 min 0 min 139 W/m 20,9 km/h (4 Bft)
14.02.2015 09:36 4,2 C 3,3 C 87 % 1008,1 hPa 0,0 l/m 2 min 0 min 145 W/m 18,8 km/h (3 Bft)
14.02.2015 09:38 4,2 C 3,3 C 88 % 1008,1 hPa 0,0 l/m 2 min 0 min 145 W/m 18,8 km/h (3 Bft)
14.02.2015 09:40 4,3 C 3,3 C 87 % 1008,1 hPa 0,0 l/m 2 min 0 min 140 W/m 23,0 km/h (4 Bft)
14.02.2015 09:42 4,3 C 3,9 C 87 % 1008,1 hPa 0,0 l/m 2 min 0 min 145 W/m 25,1 km/h (4 Bft)
14.02.2015 09:44 4,4 C 3,9 C 87 % 1008,1 hPa 0,0 l/m 2 min 0 min 161 W/m 23,0 km/h (4 Bft)
14.02.2015 09:46 4,4 C 3,9 C 87 % 1008,1 hPa 0,0 l/m 2 min 0 min 168 W/m 23,0 km/h (4 Bft)
14.02.2015 09:48 4,5 C 3,9 C 87 % 1008,1 hPa 0,0 l/m 2 min 0 min 169 W/m 25,1 km/h (4 Bft)
14.02.2015 09:50 4,6 C 3,9 C 87 % 1008,0 hPa 0,0 l/m 2 min 0 min 159 W/m 23,0 km/h (4 Bft)
14.02.2015 09:52 4,7 C 3,9 C 87 % 1008,1 hPa 0,0 l/m 2 min 0 min 171 W/m 23,0 km/h (4 Bft)
14.02.2015 09:54 4,7 C 3,9 C 87 % 1008,0 hPa 0,0 l/m 2 min 0 min 168 W/m 20,9 km/h (4 Bft)
14.02.2015 09:56 4,8 C 3,9 C 87 % 1008,0 hPa 0,0 l/m 2 min 0 min 136 W/m 23,0 km/h (4 Bft)
14.02.2015 09:58 4,8 C 3,9 C 87 % 1008,0 hPa 0,0 l/m 2 min 0 min 144 W/m 25,1 km/h (4 Bft)
14.02.2015 10:00 4,9 C 3,9 C 86 % 1008,0 hPa 0,0 l/m 0 min 0 min 121 W/m 25,1 km/h (4 Bft)
14.02.2015 10:02 4,9 C 3,9 C 86 % 1008,0 hPa 0,0 l/m 0 min 0 min 107 W/m 27,2 km/h (4 Bft)
14.02.2015 10:04 5,0 C 3,9 C 86 % 1008,0 hPa 0,0 l/m 0 min 0 min 114 W/m 20,9 km/h (4 Bft)
14.02.2015 10:06 5,0 C 3,9 C 86 % 1008,0 hPa 0,0 l/m 2 min 0 min 164 W/m 20,9 km/h (4 Bft)
14.02.2015 10:08 5,1 C 3,9 C 86 % 1008,0 hPa 0,0 l/m 2 min 0 min 146 W/m 20,9 km/h (4 Bft)
14.02.2015 10:10 5,1 C 3,9 C 85 % 1008,0 hPa 0,0 l/m 0 min 0 min 111 W/m 23,0 km/h (4 Bft)
14.02.2015 10:12 5,1 C 3,9 C 85 % 1008,0 hPa 0,0 l/m 0 min 0 min 120 W/m 20,9 km/h (4 Bft)
14.02.2015 10:14 5,2 C 3,9 C 85 % 1008,1 hPa 0,0 l/m 0 min 0 min 126 W/m 25,1 km/h (4 Bft)
14.02.2015 10:16 5,2 C 3,9 C 85 % 1008,1 hPa 0,0 l/m 0 min 0 min 135 W/m 20,9 km/h (4 Bft)
14.02.2015 10:18 5,2 C 3,9 C 85 % 1008,1 hPa 0,0 l/m 2 min 0 min 189 W/m 23,0 km/h (4 Bft)
14.02.2015 10:20 5,3 C 3,9 C 85 % 1008,0 hPa 0,0 l/m 2 min 0 min 223 W/m 23,0 km/h (4 Bft)
14.02.2015 10:22 5,3 C 4,4 C 85 % 1008,0 hPa 0,0 l/m 0 min 0 min 157 W/m 25,1 km/h (4 Bft)
14.02.2015 10:24 5,3 C 4,4 C 85 % 1008,2 hPa 0,0 l/m 0 min 0 min 140 W/m 23,0 km/h (4 Bft)
14.02.2015 10:26 5,4 C 4,4 C 85 % 1008,1 hPa 0,0 l/m 2 min 0 min 173 W/m 27,2 km/h (4 Bft)
14.02.2015 10:28 5,4 C 4,4 C 84 % 1008,1 hPa 0,0 l/m 2 min 0 min 194 W/m 23,0 km/h (4 Bft)
14.02.2015 10:30 5,4 C 4,4 C 84 % 1008,1 hPa 0,0 l/m 2 min 0 min 234 W/m 23,0 km/h (4 Bft)
14.02.2015 10:32 5,5 C 4,4 C 84 % 1008,2 hPa 0,0 l/m 2 min 0 min 312 W/m 20,9 km/h (4 Bft)
14.02.2015 10:34 5,6 C 4,4 C 84 % 1008,2 hPa 0,0 l/m 2 min 0 min 312 W/m 29,3 km/h (5 Bft)
14.02.2015 10:36 5,7 C 4,4 C 84 % 1008,2 hPa 0,0 l/m 2 min 0 min 319 W/m 25,1 km/h (4 Bft)
14.02.2015 10:38 5,8 C 4,4 C 84 % 1008,1 hPa 0,0 l/m 2 min 0 min 265 W/m 31,4 km/h (5 Bft)
14.02.2015 10:40 5,9 C 4,4 C 84 % 1008,1 hPa 0,0 l/m 2 min 0 min 281 W/m 25,1 km/h (4 Bft)
14.02.2015 10:42 5,9 C 4,4 C 83 % 1008,1 hPa 0,0 l/m 2 min 0 min 233 W/m 20,9 km/h (4 Bft)
14.02.2015 10:44 6,0 C 5,0 C 83 % 1008,1 hPa 0,0 l/m 2 min 0 min 255 W/m 20,9 km/h (4 Bft)
14.02.2015 10:46 6,1 C 5,0 C 83 % 1008,1 hPa 0,0 l/m 2 min 0 min 349 W/m 27,2 km/h (4 Bft)
14.02.2015 10:48 6,2 C 5,0 C 83 % 1008,1 hPa 0,0 l/m 2 min 0 min 389 W/m 31,4 km/h (5 Bft)
14.02.2015 10:50 6,3 C 5,0 C 83 % 1008,1 hPa 0,0 l/m 2 min 0 min 366 W/m 31,4 km/h (5 Bft)
14.02.2015 10:52 6,4 C 5,0 C 83 % 1008,2 hPa 0,0 l/m 2 min 0 min 366 W/m 23,0 km/h (4 Bft)
14.02.2015 10:54 6,5 C 5,0 C 82 % 1008,1 hPa 0,0 l/m 2 min 0 min 314 W/m 20,9 km/h (4 Bft)
14.02.2015 10:56 6,6 C 5,6 C 82 % 1008,1 hPa 0,0 l/m 2 min 0 min 341 W/m 31,4 km/h (5 Bft)
14.02.2015 10:58 6,7 C 5,6 C 82 % 1008,1 hPa 0,0 l/m 2 min 0 min 312 W/m 23,0 km/h (4 Bft)
14.02.2015 11:00 6,8 C 5,6 C 82 % 1008,1 hPa 0,0 l/m 2 min 0 min 336 W/m 20,9 km/h (4 Bft)
14.02.2015 11:02 6,8 C 5,6 C 81 % 1008,2 hPa 0,0 l/m 2 min 0 min 246 W/m 25,1 km/h (4 Bft)
14.02.2015 11:04 6,9 C 5,6 C 81 % 1008,1 hPa 0,0 l/m 2 min 0 min 373 W/m 29,3 km/h (5 Bft)
14.02.2015 11:06 7,0 C 5,6 C 81 % 1008,1 hPa 0,0 l/m 2 min 0 min 391 W/m 29,3 km/h (5 Bft)
14.02.2015 11:08 7,1 C 5,6 C 81 % 1008,0 hPa 0,0 l/m 2 min 0 min 368 W/m 18,8 km/h (3 Bft)
14.02.2015 11:10 7,2 C 5,6 C 81 % 1008,0 hPa 0,0 l/m 2 min 0 min 392 W/m 16,7 km/h (3 Bft)
14.02.2015 11:12 7,3 C 5,6 C 81 % 1008,0 hPa 0,0 l/m 2 min 0 min 386 W/m 18,8 km/h (3 Bft)
14.02.2015 11:14 7,4 C 6,1 C 81 % 1008,0 hPa 0,0 l/m 2 min 0 min 383 W/m 25,1 km/h (4 Bft)
14.02.2015 11:16 7,5 C 6,1 C 81 % 1008,0 hPa 0,0 l/m 2 min 0 min 337 W/m 25,1 km/h (4 Bft)
14.02.2015 11:18 7,6 C 6,1 C 80 % 1007,9 hPa 0,0 l/m 2 min 0 min 221 W/m 23,0 km/h (4 Bft)
14.02.2015 11:20 7,6 C 5,6 C 80 % 1007,9 hPa 0,0 l/m 0 min 0 min 187 W/m 23,0 km/h (4 Bft)
14.02.2015 11:22 7,7 C 5,6 C 79 % 1007,9 hPa 0,0 l/m 0 min 0 min 186 W/m 20,9 km/h (4 Bft)
14.02.2015 11:24 7,7 C 5,6 C 79 % 1008,0 hPa 0,0 l/m 2 min 0 min 302 W/m 16,7 km/h (3 Bft)
14.02.2015 11:26 7,7 C 6,1 C 79 % 1008,0 hPa 0,0 l/m 2 min 0 min 344 W/m 23,0 km/h (4 Bft)
14.02.2015 11:28 7,8 C 6,1 C 79 % 1008,1 hPa 0,0 l/m 2 min 0 min 356 W/m 20,9 km/h (4 Bft)
14.02.2015 11:30 7,9 C 6,1 C 79 % 1008,1 hPa 0,0 l/m 2 min 0 min 282 W/m 16,7 km/h (3 Bft)
14.02.2015 11:32 7,9 C 6,1 C 79 % 1008,1 hPa 0,0 l/m 2 min 0 min 211 W/m 18,8 km/h (3 Bft)
14.02.2015 11:34 8,0 C 6,1 C 79 % 1008,2 hPa 0,0 l/m 0 min 0 min 154 W/m 18,8 km/h (3 Bft)
14.02.2015 11:36 8,0 C 6,1 C 79 % 1008,1 hPa 0,0 l/m 0 min 0 min 118 W/m 18,8 km/h (3 Bft)
14.02.2015 11:38 8,0 C 6,1 C 79 % 1008,1 hPa 0,0 l/m 0 min 0 min 164 W/m 16,7 km/h (3 Bft)
14.02.2015 11:40 8,1 C 6,1 C 78 % 1008,2 hPa 0,0 l/m 2 min 0 min 229 W/m 14,6 km/h (3 Bft)
14.02.2015 11:42 8,1 C 6,1 C 79 % 1008,1 hPa 0,0 l/m 2 min 0 min 261 W/m 18,8 km/h (3 Bft)
14.02.2015 11:44 8,1 C 6,7 C 79 % 1008,1 hPa 0,0 l/m 2 min 0 min 221 W/m 14,6 km/h (3 Bft)
14.02.2015 11:46 8,1 C 6,7 C 79 % 1008,1 hPa 0,0 l/m 2 min 0 min 211 W/m 16,7 km/h (3 Bft)
14.02.2015 11:48 8,1 C 6,7 C 78 % 1008,1 hPa 0,0 l/m 0 min 0 min 180 W/m 18,8 km/h (3 Bft)
14.02.2015 11:50 8,1 C 6,7 C 79 % 1008,1 hPa 0,0 l/m 0 min 0 min 176 W/m 18,8 km/h (3 Bft)
14.02.2015 11:52 8,1 C 6,7 C 79 % 1008,1 hPa 0,0 l/m 0 min 0 min 171 W/m 29,3 km/h (5 Bft)
14.02.2015 11:54 8,1 C 6,7 C 79 % 1007,9 hPa 0,0 l/m 0 min 0 min 164 W/m 18,8 km/h (3 Bft)
14.02.2015 11:56 8,1 C 6,7 C 79 % 1008,0 hPa 0,0 l/m 0 min 0 min 170 W/m 20,9 km/h (4 Bft)
14.02.2015 11:58 8,0 C 6,7 C 79 % 1007,9 hPa 0,0 l/m 0 min 0 min 166 W/m 25,1 km/h (4 Bft)
14.02.2015 12:00 8,0 C 6,7 C 79 % 1007,9 hPa 0,0 l/m 0 min 0 min 160 W/m 16,7 km/h (3 Bft)
14.02.2015 12:02 8,0 C 6,7 C 79 % 1008,0 hPa 0,0 l/m 0 min 0 min 162 W/m 20,9 km/h (4 Bft)
14.02.2015 12:04 8,0 C 7,2 C 79 % 1008,0 hPa 0,0 l/m 0 min 0 min 178 W/m 16,7 km/h (3 Bft)
14.02.2015 12:06 8,0 C 7,2 C 80 % 1008,0 hPa 0,0 l/m 0 min 0 min 198 W/m 23,0 km/h (4 Bft)
14.02.2015 12:08 8,0 C 7,2 C 80 % 1008,0 hPa 0,0 l/m 0 min 0 min 208 W/m 12,6 km/h (3 Bft)
14.02.2015 12:10 8,0 C 7,2 C 80 % 1008,0 hPa 0,0 l/m 0 min 0 min 213 W/m 14,6 km/h (3 Bft)
14.02.2015 12:12 8,1 C 7,8 C 80 % 1008,0 hPa 0,0 l/m 2 min 0 min 264 W/m 14,6 km/h (3 Bft)
14.02.2015 12:14 8,1 C 7,8 C 80 % 1008,0 hPa 0,0 l/m 2 min 0 min 271 W/m 20,9 km/h (4 Bft)
14.02.2015 12:16 8,2 C 7,8 C 80 % 1008,0 hPa 0,0 l/m 2 min 0 min 271 W/m 37,7 km/h (5 Bft)
14.02.2015 12:18 8,2 C 7,8 C 80 % 1008,0 hPa 0,0 l/m 2 min 0 min 271 W/m 23,0 km/h (4 Bft)
14.02.2015 12:20 8,3 C 7,8 C 80 % 1008,0 hPa 0,0 l/m 2 min 0 min 286 W/m 25,1 km/h (4 Bft)
14.02.2015 12:22 8,4 C 7,8 C 80 % 1008,0 hPa 0,0 l/m 2 min 0 min 336 W/m 25,1 km/h (4 Bft)
14.02.2015 12:24 8,5 C 7,8 C 80 % 1008,1 hPa 0,0 l/m 2 min 0 min 475 W/m 20,9 km/h (4 Bft)
14.02.2015 12:26 8,6 C 7,8 C 80 % 1008,2 hPa 0,0 l/m 2 min 0 min 501 W/m 16,7 km/h (3 Bft)
14.02.2015 12:28 8,8 C 8,3 C 80 % 1008,0 hPa 0,0 l/m 2 min 0 min 453 W/m 16,7 km/h (3 Bft)
14.02.2015 12:30 8,9 C 7,8 C 79 % 1008,0 hPa 0,0 l/m 2 min 0 min 455 W/m 18,8 km/h (3 Bft)
14.02.2015 12:32 9,1 C 8,3 C 79 % 1008,0 hPa 0,0 l/m 2 min 0 min 460 W/m 16,7 km/h (3 Bft)
14.02.2015 12:34 9,2 C 8,3 C 79 % 1008,0 hPa 0,0 l/m 2 min 0 min 446 W/m 16,7 km/h (3 Bft)
14.02.2015 12:36 9,3 C 8,3 C 78 % 1008,0 hPa 0,0 l/m 2 min 0 min 412 W/m 16,7 km/h (3 Bft)
14.02.2015 12:38 9,4 C 8,3 C 78 % 1008,0 hPa 0,0 l/m 2 min 0 min 433 W/m 23,0 km/h (4 Bft)
14.02.2015 12:40 9,5 C 8,3 C 77 % 1007,9 hPa 0,0 l/m 2 min 0 min 460 W/m 20,9 km/h (4 Bft)
14.02.2015 12:42 9,6 C 8,3 C 77 % 1008,0 hPa 0,0 l/m 2 min 0 min 448 W/m 23,0 km/h (4 Bft)
14.02.2015 12:44 9,7 C 8,3 C 77 % 1007,9 hPa 0,0 l/m 2 min 0 min 459 W/m 20,9 km/h (4 Bft)
14.02.2015 12:46 9,8 C 8,3 C 76 % 1007,8 hPa 0,0 l/m 2 min 0 min 439 W/m 16,7 km/h (3 Bft)
14.02.2015 12:48 9,9 C 8,3 C 76 % 1007,8 hPa 0,0 l/m 2 min 0 min 399 W/m 16,7 km/h (3 Bft)
14.02.2015 12:50 10,0 C 8,3 C 75 % 1007,9 hPa 0,0 l/m 2 min 0 min 329 W/m 25,1 km/h (4 Bft)
14.02.2015 12:52 10,0 C 8,3 C 75 % 1007,9 hPa 0,0 l/m 0 min 0 min 204 W/m 14,6 km/h (3 Bft)
14.02.2015 12:54 10,1 C 8,3 C 75 % 1007,9 hPa 0,0 l/m 2 min 0 min 295 W/m 20,9 km/h (4 Bft)
14.02.2015 12:56 10,1 C 8,3 C 75 % 1007,8 hPa 0,0 l/m 2 min 0 min 461 W/m 20,9 km/h (4 Bft)
14.02.2015 12:58 10,2 C 8,3 C 75 % 1007,9 hPa 0,0 l/m 2 min 0 min 456 W/m 12,6 km/h (3 Bft)
14.02.2015 13:00 10,2 C 8,9 C 75 % 1007,8 hPa 0,0 l/m 2 min 0 min 440 W/m 16,7 km/h (3 Bft)
14.02.2015 13:02 10,3 C 8,9 C 75 % 1007,8 hPa 0,0 l/m 2 min 0 min 445 W/m 16,7 km/h (3 Bft)
14.02.2015 13:04 10,4 C 8,9 C 75 % 1007,8 hPa 0,0 l/m 2 min 0 min 445 W/m 18,8 km/h (3 Bft)
14.02.2015 13:06 10,4 C 8,9 C 75 % 1007,8 hPa 0,0 l/m 2 min 0 min 431 W/m 14,6 km/h (3 Bft)
14.02.2015 13:08 10,6 C 8,9 C 74 % 1007,8 hPa 0,0 l/m 2 min 0 min 442 W/m 23,0 km/h (4 Bft)
14.02.2015 13:10 10,6 C 8,3 C 74 % 1007,8 hPa 0,0 l/m 2 min 0 min 444 W/m 20,9 km/h (4 Bft)
14.02.2015 13:12 10,7 C 8,3 C 73 % 1007,7 hPa 0,0 l/m 2 min 0 min 426 W/m 23,0 km/h (4 Bft)
14.02.2015 13:14 10,7 C 8,3 C 73 % 1007,7 hPa 0,0 l/m 2 min 0 min 418 W/m 27,2 km/h (4 Bft)
14.02.2015 13:16 10,8 C 8,9 C 73 % 1007,7 hPa 0,0 l/m 2 min 0 min 412 W/m 23,0 km/h (4 Bft)
14.02.2015 13:18 10,8 C 8,9 C 73 % 1007,7 hPa 0,0 l/m 2 min 0 min 434 W/m 16,7 km/h (3 Bft)
14.02.2015 13:20 10,8 C 8,9 C 73 % 1007,6 hPa 0,0 l/m 2 min 0 min 429 W/m 20,9 km/h (4 Bft)
14.02.2015 13:22 10,9 C 8,9 C 73 % 1007,7 hPa 0,0 l/m 2 min 0 min 429 W/m 20,9 km/h (4 Bft)
14.02.2015 13:24 10,9 C 8,9 C 73 % 1007,7 hPa 0,0 l/m 2 min 0 min 433 W/m 18,8 km/h (3 Bft)
14.02.2015 13:26 11,0 C 8,9 C 73 % 1007,7 hPa 0,0 l/m 2 min 0 min 425 W/m 14,6 km/h (3 Bft)
14.02.2015 13:28 11,0 C 8,9 C 73 % 1007,7 hPa 0,0 l/m 2 min 0 min 430 W/m 18,8 km/h (3 Bft)
14.02.2015 13:30 11,1 C 8,9 C 73 % 1007,7 hPa 0,0 l/m 2 min 0 min 428 W/m 18,8 km/h (3 Bft)
14.02.2015 13:32 11,2 C 8,9 C 72 % 1007,6 hPa 0,0 l/m 2 min 0 min 413 W/m 16,7 km/h (3 Bft)
14.02.2015 13:34 11,2 C 8,9 C 72 % 1007,5 hPa 0,0 l/m 2 min 0 min 412 W/m 16,7 km/h (3 Bft)
14.02.2015 13:36 11,3 C 8,9 C 72 % 1007,6 hPa 0,0 l/m 2 min 0 min 410 W/m 10,5 km/h (2 Bft)
14.02.2015 13:38 11,3 C 9,4 C 72 % 1007,5 hPa 0,0 l/m 2 min 0 min 414 W/m 16,7 km/h (3 Bft)
14.02.2015 13:40 11,4 C 8,9 C 72 % 1007,5 hPa 0,0 l/m 2 min 0 min 423 W/m 18,8 km/h (3 Bft)
14.02.2015 13:42 11,4 C 8,9 C 71 % 1007,5 hPa 0,0 l/m 2 min 0 min 418 W/m 16,7 km/h (3 Bft)
14.02.2015 13:44 11,4 C 8,9 C 71 % 1007,5 hPa 0,0 l/m 2 min 0 min 412 W/m 18,8 km/h (3 Bft)
14.02.2015 13:46 11,5 C 8,9 C 71 % 1007,5 hPa 0,0 l/m 2 min 0 min 417 W/m 14,6 km/h (3 Bft)
14.02.2015 13:48 11,6 C 8,9 C 71 % 1007,5 hPa 0,0 l/m 2 min 0 min 408 W/m 20,9 km/h (4 Bft)
14.02.2015 13:50 11,6 C 8,9 C 71 % 1007,5 hPa 0,0 l/m 2 min 0 min 405 W/m 18,8 km/h (3 Bft)
14.02.2015 13:52 11,6 C 8,9 C 71 % 1007,5 hPa 0,0 l/m 2 min 0 min 401 W/m 23,0 km/h (4 Bft)
14.02.2015 13:54 11,6 C 8,9 C 71 % 1007,5 hPa 0,0 l/m 2 min 0 min 396 W/m 20,9 km/h (4 Bft)
14.02.2015 13:56 11,6 C 8,9 C 71 % 1007,6 hPa 0,0 l/m 2 min 0 min 392 W/m 23,0 km/h (4 Bft)
14.02.2015 13:58 11,7 C 9,4 C 71 % 1007,6 hPa 0,0 l/m 2 min 0 min 388 W/m 16,7 km/h (3 Bft)
14.02.2015 14:00 11,7 C 8,9 C 70 % 1007,6 hPa 0,0 l/m 2 min 0 min 389 W/m 20,9 km/h (4 Bft)
14.02.2015 14:02 11,7 C 9,4 C 71 % 1007,4 hPa 0,0 l/m 2 min 0 min 382 W/m 20,9 km/h (4 Bft)
14.02.2015 14:04 11,8 C 8,9 C 70 % 1007,5 hPa 0,0 l/m 2 min 0 min 380 W/m 25,1 km/h (4 Bft)
14.02.2015 14:06 11,8 C 9,4 C 70 % 1007,5 hPa 0,0 l/m 2 min 0 min 379 W/m 18,8 km/h (3 Bft)
14.02.2015 14:08 11,8 C 9,4 C 70 % 1007,5 hPa 0,0 l/m 2 min 0 min 375 W/m 20,9 km/h (4 Bft)
14.02.2015 14:10 11,8 C 9,4 C 70 % 1007,5 hPa 0,0 l/m 2 min 0 min 374 W/m 18,8 km/h (3 Bft)
14.02.2015 14:12 11,9 C 9,4 C 70 % 1007,4 hPa 0,0 l/m 2 min 0 min 373 W/m 16,7 km/h (3 Bft)
14.02.2015 14:14 11,9 C 9,4 C 70 % 1007,5 hPa 0,0 l/m 2 min 0 min 370 W/m 20,9 km/h (4 Bft)
14.02.2015 14:16 11,9 C 9,4 C 70 % 1007,4 hPa 0,0 l/m 2 min 0 min 370 W/m 31,4 km/h (5 Bft)
14.02.2015 14:18 12,0 C 9,4 C 70 % 1007,4 hPa 0,0 l/m 2 min 0 min 366 W/m 20,9 km/h (4 Bft)
14.02.2015 14:20 12,0 C 9,4 C 69 % 1007,4 hPa 0,0 l/m 2 min 0 min 364 W/m 20,9 km/h (4 Bft)
14.02.2015 14:22 12,0 C 9,4 C 69 % 1007,4 hPa 0,0 l/m 2 min 0 min 361 W/m 23,0 km/h (4 Bft)
14.02.2015 14:24 12,0 C 9,4 C 69 % 1007,5 hPa 0,0 l/m 2 min 0 min 358 W/m 16,7 km/h (3 Bft)
14.02.2015 14:26 12,0 C 9,4 C 69 % 1007,5 hPa 0,0 l/m 2 min 0 min 353 W/m 20,9 km/h (4 Bft)
14.02.2015 14:28 12,0 C 9,4 C 68 % 1007,4 hPa 0,0 l/m 2 min 0 min 345 W/m 14,6 km/h (3 Bft)
14.02.2015 14:30 12,1 C 9,4 C 69 % 1007,5 hPa 0,0 l/m 2 min 0 min 362 W/m 18,8 km/h (3 Bft)
14.02.2015 14:32 12,1 C 9,4 C 68 % 1007,5 hPa 0,0 l/m 2 min 0 min 372 W/m 18,8 km/h (3 Bft)
14.02.2015 14:34 12,1 C 9,4 C 68 % 1007,5 hPa 0,0 l/m 0 min 0 min 182 W/m 18,8 km/h (3 Bft)
14.02.2015 14:36 12,1 C 9,4 C 68 % 1007,4 hPa 0,0 l/m 0 min 0 min 154 W/m 18,8 km/h (3 Bft)
14.02.2015 14:38 12,0 C 9,4 C 68 % 1007,4 hPa 0,0 l/m 0 min 0 min 162 W/m 14,6 km/h (3 Bft)
14.02.2015 14:40 12,0 C 9,4 C 68 % 1007,5 hPa 0,0 l/m 2 min 0 min 253 W/m 16,7 km/h (3 Bft)
14.02.2015 14:42 11,9 C 10,0 C 69 % 1007,5 hPa 0,0 l/m 2 min 0 min 367 W/m 16,7 km/h (3 Bft)
14.02.2015 14:44 11,9 C 10,6 C 69 % 1007,4 hPa 0,0 l/m 2 min 0 min 437 W/m 18,8 km/h (3 Bft)
14.02.2015 14:46 11,9 C 10,6 C 69 % 1007,4 hPa 0,0 l/m 2 min 0 min 363 W/m 18,8 km/h (3 Bft)
14.02.2015 14:48 11,9 C 10,0 C 69 % 1007,4 hPa 0,0 l/m 2 min 0 min 330 W/m 20,9 km/h (4 Bft)
14.02.2015 14:50 11,9 C 10,0 C 69 % 1007,3 hPa 0,0 l/m 2 min 0 min 326 W/m 14,6 km/h (3 Bft)
14.02.2015 14:52 12,0 C 10,0 C 69 % 1007,3 hPa 0,0 l/m 2 min 0 min 325 W/m 20,9 km/h (4 Bft)
14.02.2015 14:54 12,0 C 10,0 C 69 % 1007,3 hPa 0,0 l/m 2 min 0 min 312 W/m 16,7 km/h (3 Bft)
14.02.2015 14:56 12,1 C 10,0 C 68 % 1007,4 hPa 0,0 l/m 2 min 0 min 315 W/m 23,0 km/h (4 Bft)
14.02.2015 14:58 12,1 C 10,0 C 68 % 1007,5 hPa 0,0 l/m 2 min 0 min 324 W/m 23,0 km/h (4 Bft)
14.02.2015 15:00 12,1 C 10,0 C 68 % 1007,4 hPa 0,0 l/m 2 min 0 min 326 W/m 12,6 km/h (3 Bft)
14.02.2015 15:02 12,1 C 10,0 C 67 % 1007,4 hPa 0,0 l/m 2 min 0 min 337 W/m 16,7 km/h (3 Bft)
14.02.2015 15:04 12,2 C 10,0 C 67 % 1007,5 hPa 0,0 l/m 2 min 0 min 349 W/m 18,8 km/h (3 Bft)
14.02.2015 15:06 12,2 C 10,6 C 67 % 1007,5 hPa 0,0 l/m 2 min 0 min 369 W/m 16,7 km/h (3 Bft)
14.02.2015 15:08 12,2 C 10,6 C 67 % 1007,5 hPa 0,0 l/m 2 min 0 min 348 W/m 23,0 km/h (4 Bft)
14.02.2015 15:10 12,2 C 10,6 C 67 % 1007,5 hPa 0,0 l/m 2 min 0 min 371 W/m 18,8 km/h (3 Bft)
14.02.2015 15:12 12,2 C 11,1 C 67 % 1007,5 hPa 0,0 l/m 2 min 0 min 384 W/m 25,1 km/h (4 Bft)
14.02.2015 15:14 12,2 C 11,1 C 67 % 1007,6 hPa 0,0 l/m 2 min 0 min 377 W/m 18,8 km/h (3 Bft)
14.02.2015 15:16 12,3 C 11,1 C 68 % 1007,6 hPa 0,0 l/m 2 min 0 min 361 W/m 25,1 km/h (4 Bft)
14.02.2015 15:18 12,3 C 10,6 C 67 % 1007,6 hPa 0,0 l/m 2 min 0 min 176 W/m 20,9 km/h (4 Bft)
14.02.2015 15:20 12,3 C 10,6 C 67 % 1007,6 hPa 0,0 l/m 0 min 0 min 98 W/m 23,0 km/h (4 Bft)
14.02.2015 15:22 12,2 C 10,0 C 67 % 1007,7 hPa 0,0 l/m 0 min 0 min 87 W/m 29,3 km/h (5 Bft)
14.02.2015 15:24 12,1 C 9,4 C 67 % 1007,6 hPa 0,0 l/m 0 min 0 min 130 W/m 16,7 km/h (3 Bft)
14.02.2015 15:26 12,0 C 9,4 C 68 % 1007,6 hPa 0,0 l/m 0 min 0 min 90 W/m 18,8 km/h (3 Bft)
14.02.2015 15:28 11,9 C 9,4 C 68 % 1007,6 hPa 0,0 l/m 0 min 0 min 93 W/m 16,7 km/h (3 Bft)
14.02.2015 15:30 11,8 C 9,4 C 68 % 1007,6 hPa 0,0 l/m 0 min 0 min 119 W/m 25,1 km/h (4 Bft)
14.02.2015 15:32 11,8 C 9,4 C 68 % 1007,6 hPa 0,0 l/m 2 min 0 min 203 W/m 10,5 km/h (2 Bft)
14.02.2015 15:34 11,7 C 10,0 C 69 % 1007,5 hPa 0,0 l/m 2 min 0 min 301 W/m 18,8 km/h (3 Bft)
14.02.2015 15:36 11,7 C 10,0 C 69 % 1007,5 hPa 0,0 l/m 2 min 0 min 293 W/m 20,9 km/h (4 Bft)
14.02.2015 15:38 11,7 C 10,0 C 69 % 1007,5 hPa 0,0 l/m 2 min 0 min 249 W/m 16,7 km/h (3 Bft)
14.02.2015 15:40 11,7 C 10,0 C 69 % 1007,5 hPa 0,0 l/m 2 min 0 min 229 W/m 16,7 km/h (3 Bft)
14.02.2015 15:42 11,7 C 10,0 C 68 % 1007,5 hPa 0,0 l/m 2 min 0 min 219 W/m 23,0 km/h (4 Bft)
14.02.2015 15:44 11,7 C 9,4 C 68 % 1007,6 hPa 0,0 l/m 2 min 0 min 214 W/m 20,9 km/h (4 Bft)
14.02.2015 15:46 11,7 C 9,4 C 68 % 1007,6 hPa 0,0 l/m 2 min 0 min 209 W/m 23,0 km/h (4 Bft)
14.02.2015 15:48 11,6 C 9,4 C 68 % 1007,6 hPa 0,0 l/m 2 min 0 min 201 W/m 29,3 km/h (5 Bft)
14.02.2015 15:50 11,6 C 8,9 C 68 % 1007,5 hPa 0,0 l/m 2 min 0 min 194 W/m 27,2 km/h (4 Bft)
14.02.2015 15:52 11,5 C 8,9 C 68 % 1007,4 hPa 0,0 l/m 2 min 0 min 176 W/m 27,2 km/h (4 Bft)
14.02.2015 15:54 11,4 C 8,9 C 68 % 1007,5 hPa 0,0 l/m 2 min 0 min 184 W/m 29,3 km/h (5 Bft)
14.02.2015 15:56 11,4 C 8,9 C 69 % 1007,4 hPa 0,0 l/m 2 min 0 min 177 W/m 16,7 km/h (3 Bft)
14.02.2015 15:58 11,3 C 8,9 C 69 % 1007,4 hPa 0,0 l/m 2 min 0 min 170 W/m 25,1 km/h (4 Bft)
14.02.2015 16:00 11,3 C 8,9 C 69 % 1007,5 hPa 0,0 l/m 2 min 0 min 162 W/m 18,8 km/h (3 Bft)
14.02.2015 16:02 11,3 C 8,9 C 69 % 1007,4 hPa 0,0 l/m 2 min 0 min 155 W/m 20,9 km/h (4 Bft)
14.02.2015 16:04 11,2 C 8,3 C 69 % 1007,4 hPa 0,0 l/m 2 min 0 min 149 W/m 20,9 km/h (4 Bft)
14.02.2015 16:06 11,2 C 8,3 C 69 % 1007,4 hPa 0,0 l/m 2 min 0 min 142 W/m 20,9 km/h (4 Bft)
14.02.2015 16:08 11,1 C 8,3 C 70 % 1007,4 hPa 0,0 l/m 2 min 0 min 136 W/m 16,7 km/h (3 Bft)
14.02.2015 16:10 11,1 C 8,3 C 70 % 1007,4 hPa 0,0 l/m 2 min 0 min 115 W/m 14,6 km/h (3 Bft)
14.02.2015 16:12 11,1 C 8,3 C 70 % 1007,3 hPa 0,0 l/m 2 min 0 min 131 W/m 14,6 km/h (3 Bft)
14.02.2015 16:14 11,0 C 8,3 C 70 % 1007,4 hPa 0,0 l/m 2 min 0 min 124 W/m 18,8 km/h (3 Bft)
14.02.2015 16:16 10,9 C 8,3 C 70 % 1007,3 hPa 0,0 l/m 2 min 0 min 121 W/m 20,9 km/h (4 Bft)
14.02.2015 16:18 10,9 C 8,3 C 70 % 1007,3 hPa 0,0 l/m 2 min 0 min 116 W/m 25,1 km/h (4 Bft)
14.02.2015 16:20 10,8 C 8,3 C 70 % 1007,4 hPa 0,0 l/m 2 min 0 min 111 W/m 23,0 km/h (4 Bft)
14.02.2015 16:22 10,7 C 7,8 C 70 % 1007,3 hPa 0,0 l/m 2 min 0 min 107 W/m 23,0 km/h (4 Bft)
14.02.2015 16:24 10,7 C 7,8 C 70 % 1007,3 hPa 0,0 l/m 2 min 0 min 102 W/m 27,2 km/h (4 Bft)
14.02.2015 16:26 10,6 C 7,8 C 70 % 1007,2 hPa 0,0 l/m 2 min 0 min 98 W/m 29,3 km/h (5 Bft)
14.02.2015 16:28 10,5 C 7,8 C 70 % 1007,2 hPa 0,0 l/m 2 min 0 min 93 W/m 29,3 km/h (5 Bft)
14.02.2015 16:30 10,4 C 7,8 C 71 % 1007,2 hPa 0,0 l/m 0 min 0 min 85 W/m 29,3 km/h (5 Bft)
14.02.2015 16:32 10,4 C 7,8 C 71 % 1007,2 hPa 0,0 l/m 0 min 0 min 69 W/m 33,5 km/h (5 Bft)
14.02.2015 16:34 10,3 C 7,8 C 71 % 1007,2 hPa 0,0 l/m 0 min 0 min 66 W/m 39,7 km/h (6 Bft)
14.02.2015 16:36 10,3 C 7,8 C 71 % 1007,2 hPa 0,0 l/m 0 min 0 min 72 W/m 25,1 km/h (4 Bft)
14.02.2015 16:38 10,2 C 7,8 C 71 % 1007,3 hPa 0,0 l/m 0 min 0 min 70 W/m 27,2 km/h (4 Bft)
14.02.2015 16:40 10,2 C 7,8 C 71 % 1007,3 hPa 0,0 l/m 0 min 0 min 63 W/m 33,5 km/h (5 Bft)
14.02.2015 16:42 10,1 C 7,8 C 71 % 1007,3 hPa 0,0 l/m 0 min 0 min 55 W/m 25,1 km/h (4 Bft)
14.02.2015 16:44 10,0 C 7,8 C 71 % 1007,2 hPa 0,0 l/m 0 min 0 min 51 W/m 18,8 km/h (3 Bft)
14.02.2015 16:46 10,0 C 7,2 C 71 % 1007,3 hPa 0,0 l/m 0 min 0 min 48 W/m 27,2 km/h (4 Bft)
14.02.2015 16:48 9,9 C 7,2 C 71 % 1007,3 hPa 0,0 l/m 0 min 0 min 45 W/m 20,9 km/h (4 Bft)
14.02.2015 16:50 9,9 C 7,2 C 72 % 1007,3 hPa 0,0 l/m 0 min 0 min 44 W/m 12,6 km/h (3 Bft)
14.02.2015 16:52 9,9 C 7,2 C 72 % 1007,3 hPa 0,0 l/m 0 min 0 min 40 W/m 14,6 km/h (3 Bft)
14.02.2015 16:54 9,8 C 7,2 C 72 % 1007,3 hPa 0,0 l/m 0 min 0 min 33 W/m 14,6 km/h (3 Bft)
14.02.2015 16:56 9,8 C 7,2 C 72 % 1007,3 hPa 0,0 l/m 0 min 0 min 26 W/m 12,6 km/h (3 Bft)
14.02.2015 16:58 9,8 C 7,2 C 73 % 1007,3 hPa 0,0 l/m 0 min 0 min 22 W/m 18,8 km/h (3 Bft)
14.02.2015 17:00 9,7 C 7,2 C 73 % 1007,3 hPa 0,0 l/m 0 min 0 min 20 W/m 20,9 km/h (4 Bft)
14.02.2015 17:02 9,7 C 6,7 C 73 % 1007,3 hPa 0,0 l/m 0 min 0 min 19 W/m 14,6 km/h (3 Bft)
14.02.2015 17:04 9,6 C 6,7 C 73 % 1007,2 hPa 0,0 l/m 0 min 0 min 18 W/m 16,7 km/h (3 Bft)
14.02.2015 17:06 9,6 C 6,7 C 73 % 1007,2 hPa 0,0 l/m 0 min 0 min 18 W/m 14,6 km/h (3 Bft)
14.02.2015 17:08 9,5 C 6,7 C 73 % 1007,2 hPa 0,0 l/m 0 min 0 min 16 W/m 10,5 km/h (2 Bft)
14.02.2015 17:10 9,4 C 6,1 C 73 % 1007,2 hPa 0,0 l/m 0 min 0 min 16 W/m 12,6 km/h (3 Bft)
14.02.2015 17:12 9,4 C 6,1 C 73 % 1007,2 hPa 0,0 l/m 0 min 0 min 15 W/m 16,7 km/h (3 Bft)
14.02.2015 17:14 9,3 C 6,7 C 73 % 1007,3 hPa 0,0 l/m 0 min 0 min 14 W/m 20,9 km/h (4 Bft)
14.02.2015 17:16 9,3 C 6,1 C 73 % 1007,2 hPa 0,0 l/m 0 min 0 min 14 W/m 16,7 km/h (3 Bft)
14.02.2015 17:18 9,2 C 6,1 C 74 % 1007,3 hPa 0,0 l/m 0 min 0 min 13 W/m 12,6 km/h (3 Bft)
14.02.2015 17:20 9,2 C 6,1 C 74 % 1007,2 hPa 0,0 l/m 0 min 0 min 12 W/m 10,5 km/h (2 Bft)
14.02.2015 17:22 9,1 C 5,6 C 74 % 1007,3 hPa 0,0 l/m 0 min 0 min 12 W/m 14,6 km/h (3 Bft)
14.02.2015 17:24 9,1 C 6,1 C 74 % 1007,3 hPa 0,0 l/m 0 min 0 min 12 W/m 12,6 km/h (3 Bft)
14.02.2015 17:26 9,0 C 6,1 C 74 % 1007,3 hPa 0,0 l/m 0 min 0 min 11 W/m 14,6 km/h (3 Bft)
14.02.2015 17:28 9,0 C 5,6 C 74 % 1007,3 hPa 0,0 l/m 0 min 0 min 11 W/m 10,5 km/h (2 Bft)
14.02.2015 17:30 8,9 C 6,1 C 74 % 1007,3 hPa 0,0 l/m 0 min 0 min 11 W/m 10,5 km/h (2 Bft)
14.02.2015 17:32 8,9 C 5,6 C 74 % 1007,3 hPa 0,0 l/m 0 min 0 min 11 W/m 14,6 km/h (3 Bft)
14.02.2015 17:34 8,8 C 5,6 C 75 % 1007,3 hPa 0,0 l/m 0 min 0 min 9 W/m 10,5 km/h (2 Bft)
14.02.2015 17:36 8,8 C 5,6 C 75 % 1007,3 hPa 0,0 l/m 0 min 0 min 9 W/m 16,7 km/h (3 Bft)
14.02.2015 17:38 8,7 C 5,6 C 75 % 1007,4 hPa 0,0 l/m 0 min 0 min 9 W/m 18,8 km/h (3 Bft)
14.02.2015 17:40 8,7 C 5,6 C 75 % 1007,3 hPa 0,0 l/m 0 min 0 min 7 W/m 23,0 km/h (4 Bft)
14.02.2015 17:42 8,7 C 5,6 C 75 % 1007,4 hPa 0,0 l/m 0 min 0 min 7 W/m 16,7 km/h (3 Bft)
14.02.2015 17:44 8,6 C 5,6 C 75 % 1007,3 hPa 0,0 l/m 0 min 0 min 7 W/m 23,0 km/h (4 Bft)
14.02.2015 17:46 8,6 C 5,6 C 75 % 1007,4 hPa 0,0 l/m 0 min 0 min 5 W/m 20,9 km/h (4 Bft)
14.02.2015 17:48 8,6 C 5,6 C 76 % 1007,4 hPa 0,0 l/m 0 min 0 min 5 W/m 16,7 km/h (3 Bft)
14.02.2015 17:50 8,5 C 5,6 C 76 % 1007,5 hPa 0,0 l/m 0 min 0 min 5 W/m 16,7 km/h (3 Bft)
14.02.2015 17:52 8,5 C 5,6 C 76 % 1007,5 hPa 0,0 l/m 0 min 0 min 5 W/m 16,7 km/h (3 Bft)
14.02.2015 17:54 8,4 C 5,6 C 76 % 1007,5 hPa 0,0 l/m 0 min 0 min 0 W/m 16,7 km/h (3 Bft)
14.02.2015 17:56 8,4 C 5,6 C 76 % 1007,5 hPa 0,0 l/m 0 min 0 min 0 W/m 18,8 km/h (3 Bft)
14.02.2015 17:58 8,4 C 5,6 C 76 % 1007,6 hPa 0,0 l/m 0 min 0 min 0 W/m 18,8 km/h (3 Bft)
14.02.2015 18:00 8,3 C 5,6 C 76 % 1007,6 hPa 0,0 l/m 0 min 0 min 0 W/m 14,6 km/h (3 Bft)
14.02.2015 18:02 8,3 C 5,6 C 76 % 1007,7 hPa 0,0 l/m 0 min 0 min 0 W/m 10,5 km/h (2 Bft)
14.02.2015 18:04 8,3 C 5,6 C 76 % 1007,7 hPa 0,0 l/m 0 min 0 min 0 W/m 12,6 km/h (3 Bft)
14.02.2015 18:06 8,2 C 5,6 C 76 % 1007,6 hPa 0,0 l/m 0 min 0 min 0 W/m 16,7 km/h (3 Bft)
14.02.2015 18:08 8,2 C 5,6 C 76 % 1007,7 hPa 0,0 l/m 0 min 0 min 0 W/m 16,7 km/h (3 Bft)
14.02.2015 18:10 8,2 C 5,6 C 77 % 1007,7 hPa 0,0 l/m 0 min 0 min 0 W/m 18,8 km/h (3 Bft)
14.02.2015 18:12 8,1 C 5,6 C 77 % 1007,7 hPa 0,0 l/m 0 min 0 min 0 W/m 20,9 km/h (4 Bft)
14.02.2015 18:14 8,1 C 5,6 C 77 % 1007,7 hPa 0,0 l/m 0 min 0 min 0 W/m 20,9 km/h (4 Bft)
14.02.2015 18:16 8,1 C 5,6 C 77 % 1007,7 hPa 0,0 l/m 0 min 0 min 0 W/m 16,7 km/h (3 Bft)
14.02.2015 18:18 8,1 C 5,6 C 77 % 1007,7 hPa 0,0 l/m 0 min 0 min 0 W/m 16,7 km/h (3 Bft)
14.02.2015 18:20 8,1 C 5,6 C 77 % 1007,7 hPa 0,0 l/m 0 min 0 min 0 W/m 18,8 km/h (3 Bft)
14.02.2015 18:22 8,1 C 5,6 C 77 % 1007,7 hPa 0,0 l/m 0 min 0 min 0 W/m 14,6 km/h (3 Bft)
14.02.2015 18:24 8,0 C 5,6 C 77 % 1007,7 hPa 0,0 l/m 0 min 0 min 0 W/m 16,7 km/h (3 Bft)
14.02.2015 18:26 8,0 C 5,6 C 77 % 1007,8 hPa 0,0 l/m 0 min 0 min 0 W/m 14,6 km/h (3 Bft)
14.02.2015 18:28 7,9 C 5,6 C 77 % 1007,8 hPa 0,0 l/m 0 min 0 min 0 W/m 16,7 km/h (3 Bft)
14.02.2015 18:30 7,9 C 5,6 C 77 % 1007,9 hPa 0,0 l/m 0 min 0 min 0 W/m 18,8 km/h (3 Bft)
14.02.2015 18:32 7,9 C 5,6 C 77 % 1007,8 hPa 0,0 l/m 0 min 0 min 0 W/m 16,7 km/h (3 Bft)
14.02.2015 18:34 7,9 C 5,0 C 77 % 1007,8 hPa 0,0 l/m 0 min 0 min 0 W/m 16,7 km/h (3 Bft)
14.02.2015 18:36 7,9 C 5,0 C 77 % 1007,8 hPa 0,0 l/m 0 min 0 min 0 W/m 23,0 km/h (4 Bft)
14.02.2015 18:38 7,8 C 5,0 C 77 % 1007,9 hPa 0,0 l/m 0 min 0 min 0 W/m 16,7 km/h (3 Bft)
14.02.2015 18:40 7,8 C 5,0 C 77 % 1007,9 hPa 0,0 l/m 0 min 0 min 0 W/m 14,6 km/h (3 Bft)
14.02.2015 18:42 7,8 C 5,0 C 78 % 1007,9 hPa 0,0 l/m 0 min 0 min 0 W/m 16,7 km/h (3 Bft)
14.02.2015 18:44 7,8 C 5,0 C 78 % 1008,0 hPa 0,0 l/m 0 min 0 min 0 W/m 12,6 km/h (3 Bft)
14.02.2015 18:46 7,7 C 5,0 C 78 % 1008,0 hPa 0,0 l/m 0 min 0 min 0 W/m 16,7 km/h (3 Bft)
14.02.2015 18:48 7,7 C 5,0 C 78 % 1007,9 hPa 0,0 l/m 0 min 0 min 0 W/m 10,5 km/h (2 Bft)
14.02.2015 18:50 7,7 C 4,4 C 78 % 1008,0 hPa 0,0 l/m 0 min 0 min 0 W/m 10,5 km/h (2 Bft)
14.02.2015 18:52 7,7 C 5,0 C 78 % 1008,0 hPa 0,0 l/m 0 min 0 min 0 W/m 10,5 km/h (2 Bft)
14.02.2015 18:54 7,6 C 4,4 C 78 % 1008,0 hPa 0,0 l/m 0 min 0 min 0 W/m 14,6 km/h (3 Bft)
14.02.2015 18:56 7,6 C 5,0 C 78 % 1008,0 hPa 0,0 l/m 0 min 0 min 0 W/m 14,6 km/h (3 Bft)
14.02.2015 18:58 7,6 C 5,0 C 78 % 1008,0 hPa 0,0 l/m 0 min 0 min 0 W/m 10,5 km/h (2 Bft)
14.02.2015 19:00 7,5 C 4,4 C 78 % 1008,0 hPa 0,0 l/m 0 min 0 min 0 W/m 12,6 km/h (3 Bft)
14.02.2015 19:02 7,5 C 4,4 C 78 % 1008,0 hPa 0,0 l/m 0 min 0 min 0 W/m 14,6 km/h (3 Bft)
14.02.2015 19:04 7,4 C 4,4 C 78 % 1008,1 hPa 0,0 l/m 0 min 0 min 0 W/m 14,6 km/h (3 Bft)
14.02.2015 19:06 7,4 C 4,4 C 78 % 1008,0 hPa 0,0 l/m 0 min 0 min 0 W/m 8,4 km/h (2 Bft)
14.02.2015 19:08 7,4 C 4,4 C 79 % 1008,1 hPa 0,0 l/m 0 min 0 min 0 W/m 12,6 km/h (3 Bft)
14.02.2015 19:10 7,3 C 4,4 C 79 % 1008,1 hPa 0,0 l/m 0 min 0 min 0 W/m 8,4 km/h (2 Bft)
14.02.2015 19:12 7,3 C 4,4 C 79 % 1008,1 hPa 0,0 l/m 0 min 0 min 0 W/m 10,5 km/h (2 Bft)
14.02.2015 19:14 7,3 C 4,4 C 79 % 1008,2 hPa 0,0 l/m 0 min 0 min 0 W/m 10,5 km/h (2 Bft)
14.02.2015 19:16 7,2 C 4,4 C 79 % 1008,2 hPa 0,0 l/m 0 min 0 min 0 W/m 10,5 km/h (2 Bft)
14.02.2015 19:18 7,2 C 3,9 C 79 % 1008,2 hPa 0,0 l/m 0 min 0 min 0 W/m 10,5 km/h (2 Bft)
14.02.2015 19:20 7,2 C 3,9 C 79 % 1008,2 hPa 0,0 l/m 0 min 0 min 0 W/m 6,3 km/h (2 Bft)
14.02.2015 19:22 7,2 C 3,9 C 79 % 1008,2 hPa 0,0 l/m 0 min 0 min 0 W/m 10,5 km/h (2 Bft)
14.02.2015 19:24 7,1 C 3,9 C 79 % 1008,2 hPa 0,0 l/m 0 min 0 min 0 W/m 8,4 km/h (2 Bft)
14.02.2015 19:26 7,1 C 3,9 C 79 % 1008,2 hPa 0,0 l/m 0 min 0 min 0 W/m 10,5 km/h (2 Bft)
14.02.2015 19:28 7,1 C 3,9 C 79 % 1008,2 hPa 0,0 l/m 0 min 0 min 0 W/m 14,6 km/h (3 Bft)
14.02.2015 19:30 7,0 C 3,9 C 79 % 1008,2 hPa 0,0 l/m 0 min 0 min 0 W/m 14,6 km/h (3 Bft)
14.02.2015 19:32 7,0 C 3,9 C 79 % 1008,2 hPa 0,0 l/m 0 min 0 min 0 W/m 16,7 km/h (3 Bft)
14.02.2015 19:34 6,9 C 3,9 C 80 % 1008,2 hPa 0,0 l/m 0 min 0 min 0 W/m 18,8 km/h (3 Bft)
14.02.2015 19:36 6,9 C 3,9 C 80 % 1008,2 hPa 0,0 l/m 0 min 0 min 0 W/m 12,6 km/h (3 Bft)
14.02.2015 19:38 6,9 C 3,9 C 80 % 1008,3 hPa 0,0 l/m 0 min 0 min 0 W/m 14,6 km/h (3 Bft)
14.02.2015 19:40 6,8 C 3,9 C 80 % 1008,2 hPa 0,0 l/m 0 min 0 min 0 W/m 12,6 km/h (3 Bft)
14.02.2015 19:42 6,8 C 3,9 C 80 % 1008,2 hPa 0,0 l/m 0 min 0 min 0 W/m 12,6 km/h (3 Bft)
14.02.2015 19:44 6,8 C 3,9 C 80 % 1008,3 hPa 0,0 l/m 0 min 0 min 0 W/m 12,6 km/h (3 Bft)
14.02.2015 19:46 6,7 C 3,9 C 80 % 1008,3 hPa 0,0 l/m 0 min 0 min 0 W/m 10,5 km/h (2 Bft)
14.02.2015 19:48 6,7 C 3,9 C 81 % 1008,3 hPa 0,0 l/m 0 min 0 min 0 W/m 10,5 km/h (2 Bft)
14.02.2015 19:50 6,7 C 3,9 C 81 % 1008,3 hPa 0,0 l/m 0 min 0 min 0 W/m 8,4 km/h (2 Bft)
14.02.2015 19:52 6,7 C 3,9 C 81 % 1008,3 hPa 0,0 l/m 0 min 0 min 0 W/m 8,4 km/h (2 Bft)
14.02.2015 19:54 6,6 C 3,3 C 81 % 1008,3 hPa 0,0 l/m 0 min 0 min 0 W/m 10,5 km/h (2 Bft)
14.02.2015 19:56 6,6 C 3,3 C 81 % 1008,3 hPa 0,0 l/m 0 min 0 min 0 W/m 12,6 km/h (3 Bft)
14.02.2015 19:58 6,6 C 3,3 C 81 % 1008,4 hPa 0,0 l/m 0 min 0 min 0 W/m 10,5 km/h (2 Bft)
14.02.2015 20:00 6,6 C 3,3 C 81 % 1008,4 hPa 0,0 l/m 0 min 0 min 0 W/m 8,4 km/h (2 Bft)
14.02.2015 20:02 6,6 C 3,3 C 81 % 1008,4 hPa 0,0 l/m 0 min 0 min 0 W/m 8,4 km/h (2 Bft)
14.02.2015 20:04 6,5 C 3,3 C 81 % 1008,4 hPa 0,0 l/m 0 min 0 min 0 W/m 10,5 km/h (2 Bft)
14.02.2015 20:06 6,5 C 3,3 C 81 % 1008,4 hPa 0,0 l/m 0 min 0 min 0 W/m 8,4 km/h (2 Bft)
14.02.2015 20:08 6,4 C 2,8 C 81 % 1008,4 hPa 0,0 l/m 0 min 0 min 0 W/m 8,4 km/h (2 Bft)
14.02.2015 20:10 6,4 C 2,8 C 81 % 1008,4 hPa 0,0 l/m 0 min 0 min 0 W/m 6,3 km/h (2 Bft)
14.02.2015 20:12 6,4 C 2,8 C 81 % 1008,4 hPa 0,0 l/m 0 min 0 min 0 W/m 6,3 km/h (2 Bft)
14.02.2015 20:14 6,4 C 2,8 C 81 % 1008,4 hPa 0,0 l/m 0 min 0 min 0 W/m 6,3 km/h (2 Bft)
14.02.2015 20:16 6,4 C 2,8 C 81 % 1008,5 hPa 0,0 l/m 0 min 0 min 0 W/m 8,4 km/h (2 Bft)
14.02.2015 20:18 6,3 C 2,8 C 81 % 1008,5 hPa 0,0 l/m 0 min 0 min 0 W/m 8,4 km/h (2 Bft)
14.02.2015 20:20 6,3 C 2,2 C 81 % 1008,4 hPa 0,0 l/m 0 min 0 min 0 W/m 8,4 km/h (2 Bft)
14.02.2015 20:22 6,3 C 2,2 C 81 % 1008,5 hPa 0,0 l/m 0 min 0 min 0 W/m 8,4 km/h (2 Bft)
14.02.2015 20:24 6,2 C 2,2 C 81 % 1008,5 hPa 0,0 l/m 0 min 0 min 0 W/m 8,4 km/h (2 Bft)
14.02.2015 20:26 6,2 C 2,2 C 81 % 1008,5 hPa 0,0 l/m 0 min 0 min 0 W/m 8,4 km/h (2 Bft)
14.02.2015 20:28 6,1 C 2,2 C 81 % 1008,5 hPa 0,0 l/m 0 min 0 min 0 W/m 8,4 km/h (2 Bft)
14.02.2015 20:30 6,1 C 2,2 C 81 % 1008,5 hPa 0,0 l/m 0 min 0 min 0 W/m 6,3 km/h (2 Bft)
14.02.2015 20:32 6,1 C 2,2 C 81 % 1008,5 hPa 0,0 l/m 0 min 0 min 0 W/m 10,5 km/h (2 Bft)
14.02.2015 20:34 6,0 C 2,2 C 81 % 1008,6 hPa 0,0 l/m 0 min 0 min 0 W/m 8,4 km/h (2 Bft)
14.02.2015 20:36 5,9 C 2,2 C 82 % 1008,6 hPa 0,0 l/m 0 min 0 min 0 W/m 8,4 km/h (2 Bft)
14.02.2015 20:38 5,9 C 2,2 C 82 % 1008,5 hPa 0,0 l/m 0 min 0 min 0 W/m 10,5 km/h (2 Bft)
14.02.2015 20:40 5,9 C 2,2 C 82 % 1008,6 hPa 0,0 l/m 0 min 0 min 0 W/m 8,4 km/h (2 Bft)
14.02.2015 20:42 5,9 C 2,2 C 82 % 1008,6 hPa 0,0 l/m 0 min 0 min 0 W/m 10,5 km/h (2 Bft)
14.02.2015 20:44 5,8 C 2,2 C 82 % 1008,5 hPa 0,0 l/m 0 min 0 min 0 W/m 14,6 km/h (3 Bft)
14.02.2015 20:46 5,8 C 2,8 C 82 % 1008,6 hPa 0,0 l/m 0 min 0 min 0 W/m 12,6 km/h (3 Bft)
14.02.2015 20:48 5,7 C 2,8 C 83 % 1008,7 hPa 0,0 l/m 0 min 0 min 0 W/m 12,6 km/h (3 Bft)
14.02.2015 20:50 5,7 C 2,8 C 83 % 1008,6 hPa 0,0 l/m 0 min 0 min 0 W/m 20,9 km/h (4 Bft)
14.02.2015 20:52 5,7 C 2,8 C 83 % 1008,6 hPa 0,0 l/m 0 min 0 min 0 W/m 10,5 km/h (2 Bft)
14.02.2015 20:54 5,7 C 3,3 C 83 % 1008,7 hPa 0,0 l/m 0 min 0 min 0 W/m 14,6 km/h (3 Bft)
14.02.2015 20:56 5,7 C 3,3 C 83 % 1008,6 hPa 0,0 l/m 0 min 0 min 0 W/m 16,7 km/h (3 Bft)
14.02.2015 20:58 5,7 C 3,3 C 83 % 1008,7 hPa 0,0 l/m 0 min 0 min 0 W/m 12,6 km/h (3 Bft)
14.02.2015 21:00 5,7 C 3,3 C 84 % 1008,8 hPa 0,0 l/m 0 min 0 min 0 W/m 16,7 km/h (3 Bft)
14.02.2015 21:02 5,7 C 3,3 C 84 % 1008,8 hPa 0,0 l/m 0 min 0 min 0 W/m 12,6 km/h (3 Bft)
14.02.2015 21:04 5,7 C 3,3 C 84 % 1008,9 hPa 0,0 l/m 0 min 0 min 0 W/m 18,8 km/h (3 Bft)
14.02.2015 21:06 5,7 C 3,3 C 84 % 1008,9 hPa 0,0 l/m 0 min 0 min 0 W/m 10,5 km/h (2 Bft)
14.02.2015 21:08 5,7 C 3,3 C 84 % 1009,0 hPa 0,0 l/m 0 min 0 min 0 W/m 18,8 km/h (3 Bft)
14.02.2015 21:10 5,7 C 3,3 C 84 % 1009,0 hPa 0,0 l/m 0 min 0 min 0 W/m 18,8 km/h (3 Bft)
14.02.2015 21:12 5,7 C 3,3 C 84 % 1009,1 hPa 0,0 l/m 0 min 0 min 0 W/m 12,6 km/h (3 Bft)
14.02.2015 21:14 5,7 C 3,3 C 84 % 1009,0 hPa 0,0 l/m 0 min 0 min 0 W/m 16,7 km/h (3 Bft)
14.02.2015 21:16 5,7 C 3,3 C 84 % 1009,1 hPa 0,0 l/m 0 min 0 min 0 W/m 20,9 km/h (4 Bft)
14.02.2015 21:18 5,7 C 3,3 C 84 % 1009,1 hPa 0,0 l/m 0 min 0 min 0 W/m 20,9 km/h (4 Bft)
14.02.2015 21:20 5,6 C 3,3 C 84 % 1009,2 hPa 0,0 l/m 0 min 0 min 0 W/m 16,7 km/h (3 Bft)
14.02.2015 21:22 5,6 C 3,3 C 84 % 1009,2 hPa 0,0 l/m 0 min 0 min 0 W/m 10,5 km/h (2 Bft)
14.02.2015 21:24 5,6 C 3,3 C 84 % 1009,2 hPa 0,0 l/m 0 min 0 min 0 W/m 10,5 km/h (2 Bft)
14.02.2015 21:26 5,6 C 3,3 C 84 % 1009,2 hPa 0,0 l/m 0 min 0 min 0 W/m 12,6 km/h (3 Bft)
14.02.2015 21:28 5,6 C 3,3 C 84 % 1009,1 hPa 0,0 l/m 0 min 0 min 0 W/m 8,4 km/h (2 Bft)
14.02.2015 21:30 5,6 C 3,3 C 84 % 1009,1 hPa 0,0 l/m 0 min 0 min 0 W/m 10,5 km/h (2 Bft)
14.02.2015 21:32 5,6 C 3,3 C 84 % 1009,2 hPa 0,0 l/m 0 min 0 min 0 W/m 10,5 km/h (2 Bft)
14.02.2015 21:34 5,6 C 3,3 C 84 % 1009,2 hPa 0,0 l/m 0 min 0 min 0 W/m 10,5 km/h (2 Bft)
14.02.2015 21:36 5,6 C 3,3 C 84 % 1009,1 hPa 0,0 l/m 0 min 0 min 0 W/m 12,6 km/h (3 Bft)
14.02.2015 21:38 5,6 C 2,8 C 84 % 1009,2 hPa 0,0 l/m 0 min 0 min 0 W/m 10,5 km/h (2 Bft)
14.02.2015 21:40 5,6 C 2,8 C 84 % 1009,1 hPa 0,0 l/m 0 min 0 min 0 W/m 6,3 km/h (2 Bft)
14.02.2015 21:42 5,5 C 2,8 C 84 % 1009,1 hPa 0,0 l/m 0 min 0 min 0 W/m 14,6 km/h (3 Bft)
14.02.2015 21:44 5,5 C 2,8 C 84 % 1009,1 hPa 0,0 l/m 0 min 0 min 0 W/m 16,7 km/h (3 Bft)
14.02.2015 21:46 5,5 C 2,8 C 84 % 1009,1 hPa 0,0 l/m 0 min 0 min 0 W/m 6,3 km/h (2 Bft)
14.02.2015 21:48 5,4 C 2,8 C 84 % 1009,1 hPa 0,0 l/m 0 min 0 min 0 W/m 8,4 km/h (2 Bft)
14.02.2015 21:50 5,4 C 2,8 C 84 % 1009,2 hPa 0,0 l/m 0 min 0 min 0 W/m 16,7 km/h (3 Bft)
14.02.2015 21:52 5,4 C 2,8 C 84 % 1009,2 hPa 0,0 l/m 0 min 0 min 0 W/m 16,7 km/h (3 Bft)
14.02.2015 21:54 5,4 C 2,8 C 84 % 1009,2 hPa 0,0 l/m 0 min 0 min 0 W/m 18,8 km/h (3 Bft)
14.02.2015 21:56 5,4 C 2,8 C 84 % 1009,1 hPa 0,0 l/m 0 min 0 min 0 W/m 12,6 km/h (3 Bft)
14.02.2015 21:58 5,4 C 2,8 C 84 % 1009,2 hPa 0,0 l/m 0 min 0 min 0 W/m 10,5 km/h (2 Bft)
14.02.2015 22:00 5,3 C 2,8 C 84 % 1009,2 hPa 0,0 l/m 0 min 0 min 0 W/m 16,7 km/h (3 Bft)
14.02.2015 22:02 5,3 C 2,8 C 84 % 1009,2 hPa 0,0 l/m 0 min 0 min 0 W/m 12,6 km/h (3 Bft)
14.02.2015 22:04 5,3 C 2,8 C 84 % 1009,2 hPa 0,0 l/m 0 min 0 min 0 W/m 12,6 km/h (3 Bft)
14.02.2015 22:06 5,3 C 2,8 C 84 % 1009,3 hPa 0,0 l/m 0 min 0 min 0 W/m 8,4 km/h (2 Bft)
14.02.2015 22:08 5,3 C 2,8 C 84 % 1009,2 hPa 0,0 l/m 0 min 0 min 0 W/m 14,6 km/h (3 Bft)
14.02.2015 22:10 5,3 C 2,8 C 84 % 1009,3 hPa 0,0 l/m 0 min 0 min 0 W/m 14,6 km/h (3 Bft)
14.02.2015 22:12 5,3 C 3,3 C 84 % 1009,2 hPa 0,0 l/m 0 min 0 min 0 W/m 10,5 km/h (2 Bft)
14.02.2015 22:14 5,3 C 2,8 C 84 % 1009,3 hPa 0,0 l/m 0 min 0 min 0 W/m 14,6 km/h (3 Bft)
14.02.2015 22:16 5,3 C 2,8 C 84 % 1009,3 hPa 0,0 l/m 0 min 0 min 0 W/m 10,5 km/h (2 Bft)
14.02.2015 22:18 5,3 C 2,8 C 84 % 1009,4 hPa 0,0 l/m 0 min 0 min 0 W/m 10,5 km/h (2 Bft)
14.02.2015 22:20 5,3 C 2,8 C 84 % 1009,3 hPa 0,0 l/m 0 min 0 min 0 W/m 14,6 km/h (3 Bft)
14.02.2015 22:22 5,3 C 2,8 C 84 % 1009,3 hPa 0,0 l/m 0 min 0 min 0 W/m 12,6 km/h (3 Bft)
14.02.2015 22:24 5,3 C 2,8 C 84 % 1009,4 hPa 0,0 l/m 0 min 0 min 0 W/m 12,6 km/h (3 Bft)
14.02.2015 22:26 5,3 C 2,8 C 84 % 1009,4 hPa 0,0 l/m 0 min 0 min 0 W/m 12,6 km/h (3 Bft)
14.02.2015 22:28 5,2 C 2,8 C 84 % 1009,4 hPa 0,0 l/m 0 min 0 min 0 W/m 12,6 km/h (3 Bft)
14.02.2015 22:30 5,2 C 2,8 C 84 % 1009,4 hPa 0,0 l/m 0 min 0 min 0 W/m 8,4 km/h (2 Bft)
14.02.2015 22:32 5,2 C 2,8 C 84 % 1009,4 hPa 0,0 l/m 0 min 0 min 0 W/m 10,5 km/h (2 Bft)
14.02.2015 22:34 5,2 C 2,8 C 84 % 1009,4 hPa 0,0 l/m 0 min 0 min 0 W/m 14,6 km/h (3 Bft)
14.02.2015 22:36 5,2 C 2,8 C 84 % 1009,4 hPa 0,0 l/m 0 min 0 min 0 W/m 8,4 km/h (2 Bft)
14.02.2015 22:38 5,2 C 2,2 C 84 % 1009,4 hPa 0,0 l/m 0 min 0 min 0 W/m 8,4 km/h (2 Bft)
14.02.2015 22:40 5,1 C 2,2 C 84 % 1009,4 hPa 0,0 l/m 0 min 0 min 0 W/m 8,4 km/h (2 Bft)
14.02.2015 22:42 5,1 C 2,2 C 84 % 1009,5 hPa 0,0 l/m 0 min 0 min 0 W/m 10,5 km/h (2 Bft)
14.02.2015 22:44 5,1 C 2,2 C 84 % 1009,4 hPa 0,0 l/m 0 min 0 min 0 W/m 8,4 km/h (2 Bft)
14.02.2015 22:46 5,1 C 2,2 C 84 % 1009,4 hPa 0,0 l/m 0 min 0 min 0 W/m 10,5 km/h (2 Bft)
14.02.2015 22:48 5,1 C 2,2 C 84 % 1009,4 hPa 0,0 l/m 0 min 0 min 0 W/m 10,5 km/h (2 Bft)
14.02.2015 22:50 5,1 C 2,2 C 84 % 1009,4 hPa 0,0 l/m 0 min 0 min 0 W/m 8,4 km/h (2 Bft)
14.02.2015 22:52 5,0 C 2,2 C 84 % 1009,4 hPa 0,0 l/m 0 min 0 min 0 W/m 12,6 km/h (3 Bft)
14.02.2015 22:54 5,0 C 2,2 C 84 % 1009,5 hPa 0,0 l/m 0 min 0 min 0 W/m 10,5 km/h (2 Bft)
14.02.2015 22:56 4,9 C 2,2 C 84 % 1009,5 hPa 0,0 l/m 0 min 0 min 0 W/m 12,6 km/h (3 Bft)
14.02.2015 22:58 4,9 C 2,2 C 84 % 1009,5 hPa 0,0 l/m 0 min 0 min 0 W/m 8,4 km/h (2 Bft)
14.02.2015 23:00 4,9 C 2,2 C 84 % 1009,5 hPa 0,0 l/m 0 min 0 min 0 W/m 10,5 km/h (2 Bft)
14.02.2015 23:02 4,9 C 2,2 C 84 % 1009,5 hPa 0,0 l/m 0 min 0 min 0 W/m 14,6 km/h (3 Bft)
14.02.2015 23:04 4,9 C 2,2 C 84 % 1009,5 hPa 0,0 l/m 0 min 0 min 0 W/m 8,4 km/h (2 Bft)
14.02.2015 23:06 4,8 C 2,2 C 84 % 1009,5 hPa 0,0 l/m 0 min 0 min 0 W/m 14,6 km/h (3 Bft)
14.02.2015 23:08 4,8 C 2,2 C 85 % 1009,5 hPa 0,0 l/m 0 min 0 min 0 W/m 10,5 km/h (2 Bft)
14.02.2015 23:10 4,8 C 2,2 C 85 % 1009,5 hPa 0,0 l/m 0 min 0 min 0 W/m 8,4 km/h (2 Bft)
14.02.2015 23:12 4,8 C 1,7 C 85 % 1009,6 hPa 0,0 l/m 0 min 0 min 0 W/m 10,5 km/h (2 Bft)
14.02.2015 23:14 4,8 C 1,7 C 85 % 1009,6 hPa 0,0 l/m 0 min 0 min 0 W/m 10,5 km/h (2 Bft)
14.02.2015 23:16 4,7 C 2,2 C 85 % 1009,6 hPa 0,0 l/m 0 min 0 min 0 W/m 8,4 km/h (2 Bft)
14.02.2015 23:18 4,7 C 2,2 C 85 % 1009,7 hPa 0,0 l/m 0 min 0 min 0 W/m 6,3 km/h (2 Bft)
14.02.2015 23:20 4,7 C 2,2 C 85 % 1009,7 hPa 0,0 l/m 0 min 0 min 0 W/m 8,4 km/h (2 Bft)
14.02.2015 23:22 4,7 C 2,2 C 85 % 1009,6 hPa 0,0 l/m 0 min 0 min 0 W/m 10,5 km/h (2 Bft)
14.02.2015 23:24 4,7 C 1,7 C 85 % 1009,6 hPa 0,0 l/m 0 min 0 min 0 W/m 10,5 km/h (2 Bft)
14.02.2015 23:26 4,7 C 2,2 C 85 % 1009,6 hPa 0,0 l/m 0 min 0 min 0 W/m 10,5 km/h (2 Bft)
14.02.2015 23:28 4,7 C 2,2 C 85 % 1009,6 hPa 0,0 l/m 0 min 0 min 0 W/m 8,4 km/h (2 Bft)
14.02.2015 23:30 4,7 C 2,2 C 85 % 1009,6 hPa 0,0 l/m 0 min 0 min 0 W/m 10,5 km/h (2 Bft)
14.02.2015 23:32 4,7 C 2,2 C 86 % 1009,6 hPa 0,0 l/m 0 min 0 min 0 W/m 12,6 km/h (3 Bft)
14.02.2015 23:34 4,7 C 2,2 C 86 % 1009,5 hPa 0,0 l/m 0 min 0 min 0 W/m 8,4 km/h (2 Bft)
14.02.2015 23:36 4,6 C 2,2 C 86 % 1009,6 hPa 0,0 l/m 0 min 0 min 0 W/m 6,3 km/h (2 Bft)
14.02.2015 23:38 4,6 C 1,7 C 86 % 1009,6 hPa 0,0 l/m 0 min 0 min 0 W/m 8,4 km/h (2 Bft)
14.02.2015 23:40 4,6 C 1,7 C 86 % 1009,6 hPa 0,0 l/m 0 min 0 min 0 W/m 8,4 km/h (2 Bft)
14.02.2015 23:42 4,5 C 1,7 C 85 % 1009,7 hPa 0,0 l/m 0 min 0 min 0 W/m 10,5 km/h (2 Bft)
14.02.2015 23:44 4,4 C 1,7 C 85 % 1009,7 hPa 0,0 l/m 0 min 0 min 0 W/m 10,5 km/h (2 Bft)
14.02.2015 23:46 4,4 C 1,7 C 85 % 1009,7 hPa 0,0 l/m 0 min 0 min 0 W/m 6,3 km/h (2 Bft)
14.02.2015 23:48 4,4 C 1,7 C 85 % 1009,9 hPa 0,0 l/m 0 min 0 min 0 W/m 6,3 km/h (2 Bft)
14.02.2015 23:50 4,4 C 1,7 C 85 % 1009,9 hPa 0,0 l/m 0 min 0 min 0 W/m 6,3 km/h (2 Bft)
14.02.2015 23:52 4,3 C 1,1 C 85 % 1009,9 hPa 0,0 l/m 0 min 0 min 0 W/m 6,3 km/h (2 Bft)
14.02.2015 23:54 4,3 C 1,1 C 85 % 1010,0 hPa 0,0 l/m 0 min 0 min 0 W/m 6,3 km/h (2 Bft)
14.02.2015 23:56 4,3 C 1,1 C 85 % 1009,9 hPa 0,0 l/m 0 min 0 min 0 W/m 6,3 km/h (2 Bft)
14.02.2015 23:58 4,2 C 1,1 C 85 % 1010,0 hPa 0,0 l/m 0 min 0 min 0 W/m 6,3 km/h (2 Bft)
_ Min-Zeit 00:20 00:00 15:02 05:46 - - - - 19:20
Minimum _ 2,6 C 1,1 C 67 % 1007,2 hPa - - - - 6,3 km/h (2 Bft)
_ Max-Zeit 15:16 15:12 01:16 23:54 00:00 08:04 00:00 12:26 16:34
Maximum _ 12,3 C 11,1 C 88 % 1010,0 hPa 0,0 l/m 2 min 0 min 501 W/m 39,7 km/h
O (6 Bft)
Durchschnitt _ 6,1 C 4,1 C 82 % 1008,0 hPa #0,0 l/m #5:50 h #0 min. 205 W/m 19,1 km/h (3 Bft)
© 2015 W. Hausmann